<?xml version="1.0" encoding="UTF-8" standalone="no" ?>
<gpx xmlns="http://www.topografix.com/GPX/1/1" xmlns:xsi="http://www.w3.org/2001/XMLSchema-instance" xsi:schemaLocation="http://www.topografix.com/GPX/1/1 http://www.topografix.com/GPX/1/1/gpx.xsd" version="1.1" creator="VisuGPX - https://www.visugpx.com">
  <metadata>
    <name>29 May 2009, Sophia Antipolis</name>
    <desc><![CDATA[29 May 2009, Sophia Antipolis
-------------------------------------]]></desc>
  </metadata>
  <trk>
    <name><![CDATA[Track 14]]></name>
    <desc><![CDATA[]]></desc>
    <trkseg>
      <trkpt lat="43.62518" lon="7.06117">
        <ele>413</ele>
        <time>2009-05-29T10:03:35Z</time>
      </trkpt>
      <trkpt lat="43.6252" lon="7.06104">
        <ele>441</ele>
        <time>2009-05-29T10:03:38Z</time>
      </trkpt>
      <trkpt lat="43.62519" lon="7.06116">
        <ele>398</ele>
        <time>2009-05-29T10:03:41Z</time>
      </trkpt>
      <trkpt lat="43.62515" lon="7.06124">
        <ele>360</ele>
        <time>2009-05-29T10:03:45Z</time>
      </trkpt>
      <trkpt lat="43.62514" lon="7.06129">
        <ele>346</ele>
        <time>2009-05-29T10:03:46Z</time>
      </trkpt>
      <trkpt lat="43.62515" lon="7.06134">
        <ele>325</ele>
        <time>2009-05-29T10:05:13Z</time>
      </trkpt>
      <trkpt lat="43.62514" lon="7.06135">
        <ele>321</ele>
        <time>2009-05-29T10:05:21Z</time>
      </trkpt>
      <trkpt lat="43.62515" lon="7.06135">
        <ele>321</ele>
        <time>2009-05-29T10:05:22Z</time>
      </trkpt>
      <trkpt lat="43.62514" lon="7.0614">
        <ele>304</ele>
        <time>2009-05-29T10:06:32Z</time>
      </trkpt>
      <trkpt lat="43.62513" lon="7.06142">
        <ele>295</ele>
        <time>2009-05-29T10:06:33Z</time>
      </trkpt>
      <trkpt lat="43.62513" lon="7.06141">
        <ele>298</ele>
        <time>2009-05-29T10:06:35Z</time>
      </trkpt>
      <trkpt lat="43.62512" lon="7.06139">
        <ele>303</ele>
        <time>2009-05-29T10:08:29Z</time>
      </trkpt>
      <trkpt lat="43.62511" lon="7.06134">
        <ele>319</ele>
        <time>2009-05-29T10:08:37Z</time>
      </trkpt>
      <trkpt lat="43.62451" lon="7.06092">
        <ele>287</ele>
        <time>2009-05-29T10:08:39Z</time>
      </trkpt>
      <trkpt lat="43.62448" lon="7.06085">
        <ele>287</ele>
        <time>2009-05-29T10:08:40Z</time>
      </trkpt>
      <trkpt lat="43.62445" lon="7.06068">
        <ele>289</ele>
        <time>2009-05-29T10:08:42Z</time>
      </trkpt>
      <trkpt lat="43.62445" lon="7.0606">
        <ele>288</ele>
        <time>2009-05-29T10:08:43Z</time>
      </trkpt>
      <trkpt lat="43.62448" lon="7.06053">
        <ele>287</ele>
        <time>2009-05-29T10:08:44Z</time>
      </trkpt>
      <trkpt lat="43.62449" lon="7.06042">
        <ele>288</ele>
        <time>2009-05-29T10:08:46Z</time>
      </trkpt>
      <trkpt lat="43.6245" lon="7.06035">
        <ele>289</ele>
        <time>2009-05-29T10:08:47Z</time>
      </trkpt>
      <trkpt lat="43.62447" lon="7.05991">
        <ele>289</ele>
        <time>2009-05-29T10:08:57Z</time>
      </trkpt>
      <trkpt lat="43.62436" lon="7.0599">
        <ele>291</ele>
        <time>2009-05-29T10:08:59Z</time>
      </trkpt>
      <trkpt lat="43.62427" lon="7.05983">
        <ele>293</ele>
        <time>2009-05-29T10:09:02Z</time>
      </trkpt>
      <trkpt lat="43.62422" lon="7.05979">
        <ele>293</ele>
        <time>2009-05-29T10:09:04Z</time>
      </trkpt>
      <trkpt lat="43.62411" lon="7.05976">
        <ele>288</ele>
        <time>2009-05-29T10:09:09Z</time>
      </trkpt>
      <trkpt lat="43.62406" lon="7.05974">
        <ele>289</ele>
        <time>2009-05-29T10:09:12Z</time>
      </trkpt>
      <trkpt lat="43.62407" lon="7.0598">
        <ele>284</ele>
        <time>2009-05-29T10:09:19Z</time>
      </trkpt>
      <trkpt lat="43.62404" lon="7.05962">
        <ele>290</ele>
        <time>2009-05-29T10:09:32Z</time>
      </trkpt>
      <trkpt lat="43.62402" lon="7.05949">
        <ele>289</ele>
        <time>2009-05-29T10:09:34Z</time>
      </trkpt>
      <trkpt lat="43.62402" lon="7.05937">
        <ele>288</ele>
        <time>2009-05-29T10:09:37Z</time>
      </trkpt>
      <trkpt lat="43.62404" lon="7.05925">
        <ele>290</ele>
        <time>2009-05-29T10:09:39Z</time>
      </trkpt>
      <trkpt lat="43.62405" lon="7.0591">
        <ele>289</ele>
        <time>2009-05-29T10:09:42Z</time>
      </trkpt>
      <trkpt lat="43.62405" lon="7.05898">
        <ele>289</ele>
        <time>2009-05-29T10:09:44Z</time>
      </trkpt>
      <trkpt lat="43.62407" lon="7.0588">
        <ele>289</ele>
        <time>2009-05-29T10:09:47Z</time>
      </trkpt>
      <trkpt lat="43.6241" lon="7.05868">
        <ele>290</ele>
        <time>2009-05-29T10:09:49Z</time>
      </trkpt>
      <trkpt lat="43.62426" lon="7.05821">
        <ele>292</ele>
        <time>2009-05-29T10:09:57Z</time>
      </trkpt>
      <trkpt lat="43.62433" lon="7.05814">
        <ele>292</ele>
        <time>2009-05-29T10:09:58Z</time>
      </trkpt>
      <trkpt lat="43.6244" lon="7.05809">
        <ele>293</ele>
        <time>2009-05-29T10:09:59Z</time>
      </trkpt>
      <trkpt lat="43.62454" lon="7.0579">
        <ele>292</ele>
        <time>2009-05-29T10:10:02Z</time>
      </trkpt>
      <trkpt lat="43.6246" lon="7.05781">
        <ele>293</ele>
        <time>2009-05-29T10:10:03Z</time>
      </trkpt>
      <trkpt lat="43.62467" lon="7.05772">
        <ele>292</ele>
        <time>2009-05-29T10:10:04Z</time>
      </trkpt>
      <trkpt lat="43.62479" lon="7.05725">
        <ele>293</ele>
        <time>2009-05-29T10:10:09Z</time>
      </trkpt>
      <trkpt lat="43.6248" lon="7.05699">
        <ele>293</ele>
        <time>2009-05-29T10:10:12Z</time>
      </trkpt>
      <trkpt lat="43.6248" lon="7.05691">
        <ele>293</ele>
        <time>2009-05-29T10:10:13Z</time>
      </trkpt>
      <trkpt lat="43.62483" lon="7.05683">
        <ele>294</ele>
        <time>2009-05-29T10:10:14Z</time>
      </trkpt>
      <trkpt lat="43.62482" lon="7.05662">
        <ele>292</ele>
        <time>2009-05-29T10:10:17Z</time>
      </trkpt>
      <trkpt lat="43.62479" lon="7.05658">
        <ele>292</ele>
        <time>2009-05-29T10:10:18Z</time>
      </trkpt>
      <trkpt lat="43.62469" lon="7.05645">
        <ele>292</ele>
        <time>2009-05-29T10:10:22Z</time>
      </trkpt>
      <trkpt lat="43.62461" lon="7.05643">
        <ele>292</ele>
        <time>2009-05-29T10:10:24Z</time>
      </trkpt>
      <trkpt lat="43.62436" lon="7.05633">
        <ele>293</ele>
        <time>2009-05-29T10:10:32Z</time>
      </trkpt>
      <trkpt lat="43.6243" lon="7.05634">
        <ele>291</ele>
        <time>2009-05-29T10:10:34Z</time>
      </trkpt>
      <trkpt lat="43.62426" lon="7.05628">
        <ele>291</ele>
        <time>2009-05-29T10:10:37Z</time>
      </trkpt>
      <trkpt lat="43.62433" lon="7.05624">
        <ele>291</ele>
        <time>2009-05-29T10:10:39Z</time>
      </trkpt>
      <trkpt lat="43.62434" lon="7.05614">
        <ele>291</ele>
        <time>2009-05-29T10:10:43Z</time>
      </trkpt>
      <trkpt lat="43.62432" lon="7.05604">
        <ele>291</ele>
        <time>2009-05-29T10:10:46Z</time>
      </trkpt>
      <trkpt lat="43.62431" lon="7.05596">
        <ele>291</ele>
        <time>2009-05-29T10:10:47Z</time>
      </trkpt>
      <trkpt lat="43.62433" lon="7.05585">
        <ele>291</ele>
        <time>2009-05-29T10:10:48Z</time>
      </trkpt>
      <trkpt lat="43.62427" lon="7.05538">
        <ele>291</ele>
        <time>2009-05-29T10:10:57Z</time>
      </trkpt>
      <trkpt lat="43.62416" lon="7.05525">
        <ele>292</ele>
        <time>2009-05-29T10:11:00Z</time>
      </trkpt>
      <trkpt lat="43.62412" lon="7.0552">
        <ele>292</ele>
        <time>2009-05-29T10:11:01Z</time>
      </trkpt>
      <trkpt lat="43.62406" lon="7.05514">
        <ele>291</ele>
        <time>2009-05-29T10:11:02Z</time>
      </trkpt>
      <trkpt lat="43.62384" lon="7.05489">
        <ele>291</ele>
        <time>2009-05-29T10:11:08Z</time>
      </trkpt>
      <trkpt lat="43.62371" lon="7.05476">
        <ele>290</ele>
        <time>2009-05-29T10:11:11Z</time>
      </trkpt>
      <trkpt lat="43.62366" lon="7.05476">
        <ele>290</ele>
        <time>2009-05-29T10:11:12Z</time>
      </trkpt>
      <trkpt lat="43.62351" lon="7.05487">
        <ele>290</ele>
        <time>2009-05-29T10:11:16Z</time>
      </trkpt>
      <trkpt lat="43.62344" lon="7.05491">
        <ele>291</ele>
        <time>2009-05-29T10:11:21Z</time>
      </trkpt>
      <trkpt lat="43.62338" lon="7.05493">
        <ele>291</ele>
        <time>2009-05-29T10:11:23Z</time>
      </trkpt>
      <trkpt lat="43.62311" lon="7.05506">
        <ele>291</ele>
        <time>2009-05-29T10:11:31Z</time>
      </trkpt>
      <trkpt lat="43.62301" lon="7.05514">
        <ele>291</ele>
        <time>2009-05-29T10:11:32Z</time>
      </trkpt>
      <trkpt lat="43.62289" lon="7.05521">
        <ele>291</ele>
        <time>2009-05-29T10:11:33Z</time>
      </trkpt>
      <trkpt lat="43.62276" lon="7.05537">
        <ele>290</ele>
        <time>2009-05-29T10:11:35Z</time>
      </trkpt>
      <trkpt lat="43.62271" lon="7.05542">
        <ele>290</ele>
        <time>2009-05-29T10:11:36Z</time>
      </trkpt>
      <trkpt lat="43.62267" lon="7.05546">
        <ele>291</ele>
        <time>2009-05-29T10:11:37Z</time>
      </trkpt>
      <trkpt lat="43.62258" lon="7.05556">
        <ele>291</ele>
        <time>2009-05-29T10:11:40Z</time>
      </trkpt>
      <trkpt lat="43.62249" lon="7.05557">
        <ele>289</ele>
        <time>2009-05-29T10:11:45Z</time>
      </trkpt>
      <trkpt lat="43.62244" lon="7.05551">
        <ele>288</ele>
        <time>2009-05-29T10:11:47Z</time>
      </trkpt>
      <trkpt lat="43.62235" lon="7.05547">
        <ele>288</ele>
        <time>2009-05-29T10:11:55Z</time>
      </trkpt>
      <trkpt lat="43.62236" lon="7.05537">
        <ele>281</ele>
        <time>2009-05-29T10:12:05Z</time>
      </trkpt>
      <trkpt lat="43.62236" lon="7.05527">
        <ele>279</ele>
        <time>2009-05-29T10:12:10Z</time>
      </trkpt>
      <trkpt lat="43.62232" lon="7.05521">
        <ele>275</ele>
        <time>2009-05-29T10:12:18Z</time>
      </trkpt>
      <trkpt lat="43.62231" lon="7.0552">
        <ele>278</ele>
        <time>2009-05-29T10:12:24Z</time>
      </trkpt>
      <trkpt lat="43.62229" lon="7.05518">
        <ele>269</ele>
        <time>2009-05-29T10:13:09Z</time>
      </trkpt>
      <trkpt lat="43.62183" lon="7.05498">
        <ele>271</ele>
        <time>2009-05-29T10:13:12Z</time>
      </trkpt>
      <trkpt lat="43.62173" lon="7.05491">
        <ele>269</ele>
        <time>2009-05-29T10:13:14Z</time>
      </trkpt>
      <trkpt lat="43.62161" lon="7.05483">
        <ele>264</ele>
        <time>2009-05-29T10:13:17Z</time>
      </trkpt>
      <trkpt lat="43.62158" lon="7.05477">
        <ele>261</ele>
        <time>2009-05-29T10:13:18Z</time>
      </trkpt>
      <trkpt lat="43.62157" lon="7.05469">
        <ele>259</ele>
        <time>2009-05-29T10:13:19Z</time>
      </trkpt>
      <trkpt lat="43.62147" lon="7.05458">
        <ele>258</ele>
        <time>2009-05-29T10:13:22Z</time>
      </trkpt>
      <trkpt lat="43.62144" lon="7.05453">
        <ele>255</ele>
        <time>2009-05-29T10:13:23Z</time>
      </trkpt>
      <trkpt lat="43.62139" lon="7.05447">
        <ele>253</ele>
        <time>2009-05-29T10:13:24Z</time>
      </trkpt>
      <trkpt lat="43.6211" lon="7.05409">
        <ele>254</ele>
        <time>2009-05-29T10:13:32Z</time>
      </trkpt>
      <trkpt lat="43.62105" lon="7.05399">
        <ele>253</ele>
        <time>2009-05-29T10:13:33Z</time>
      </trkpt>
      <trkpt lat="43.62101" lon="7.05389">
        <ele>251</ele>
        <time>2009-05-29T10:13:34Z</time>
      </trkpt>
      <trkpt lat="43.62089" lon="7.05368">
        <ele>251</ele>
        <time>2009-05-29T10:13:37Z</time>
      </trkpt>
      <trkpt lat="43.62087" lon="7.0536">
        <ele>249</ele>
        <time>2009-05-29T10:13:38Z</time>
      </trkpt>
      <trkpt lat="43.62085" lon="7.05352">
        <ele>247</ele>
        <time>2009-05-29T10:13:39Z</time>
      </trkpt>
      <trkpt lat="43.62079" lon="7.05333">
        <ele>244</ele>
        <time>2009-05-29T10:13:42Z</time>
      </trkpt>
      <trkpt lat="43.62077" lon="7.05324">
        <ele>240</ele>
        <time>2009-05-29T10:13:43Z</time>
      </trkpt>
      <trkpt lat="43.62077" lon="7.05317">
        <ele>239</ele>
        <time>2009-05-29T10:13:44Z</time>
      </trkpt>
      <trkpt lat="43.62075" lon="7.05297">
        <ele>238</ele>
        <time>2009-05-29T10:13:47Z</time>
      </trkpt>
      <trkpt lat="43.62075" lon="7.05288">
        <ele>236</ele>
        <time>2009-05-29T10:13:48Z</time>
      </trkpt>
      <trkpt lat="43.62078" lon="7.05281">
        <ele>237</ele>
        <time>2009-05-29T10:13:49Z</time>
      </trkpt>
      <trkpt lat="43.62082" lon="7.05241">
        <ele>237</ele>
        <time>2009-05-29T10:13:57Z</time>
      </trkpt>
      <trkpt lat="43.62085" lon="7.05232">
        <ele>237</ele>
        <time>2009-05-29T10:13:59Z</time>
      </trkpt>
      <trkpt lat="43.62089" lon="7.0522">
        <ele>238</ele>
        <time>2009-05-29T10:14:02Z</time>
      </trkpt>
      <trkpt lat="43.62092" lon="7.05213">
        <ele>238</ele>
        <time>2009-05-29T10:14:04Z</time>
      </trkpt>
      <trkpt lat="43.62095" lon="7.05198">
        <ele>239</ele>
        <time>2009-05-29T10:14:09Z</time>
      </trkpt>
      <trkpt lat="43.62096" lon="7.05189">
        <ele>237</ele>
        <time>2009-05-29T10:14:12Z</time>
      </trkpt>
      <trkpt lat="43.62097" lon="7.05182">
        <ele>237</ele>
        <time>2009-05-29T10:14:14Z</time>
      </trkpt>
      <trkpt lat="43.62098" lon="7.05172">
        <ele>236</ele>
        <time>2009-05-29T10:14:17Z</time>
      </trkpt>
      <trkpt lat="43.62101" lon="7.05165">
        <ele>236</ele>
        <time>2009-05-29T10:14:19Z</time>
      </trkpt>
      <trkpt lat="43.62104" lon="7.05157">
        <ele>237</ele>
        <time>2009-05-29T10:14:22Z</time>
      </trkpt>
      <trkpt lat="43.62108" lon="7.05142">
        <ele>229</ele>
        <time>2009-05-29T10:14:32Z</time>
      </trkpt>
      <trkpt lat="43.6211" lon="7.05132">
        <ele>223</ele>
        <time>2009-05-29T10:14:37Z</time>
      </trkpt>
      <trkpt lat="43.62114" lon="7.05125">
        <ele>217</ele>
        <time>2009-05-29T10:14:47Z</time>
      </trkpt>
      <trkpt lat="43.62115" lon="7.05111">
        <ele>214</ele>
        <time>2009-05-29T10:14:56Z</time>
      </trkpt>
      <trkpt lat="43.62117" lon="7.05103">
        <ele>214</ele>
        <time>2009-05-29T10:14:58Z</time>
      </trkpt>
      <trkpt lat="43.62116" lon="7.05095">
        <ele>213</ele>
        <time>2009-05-29T10:15:01Z</time>
      </trkpt>
      <trkpt lat="43.62118" lon="7.05086">
        <ele>213</ele>
        <time>2009-05-29T10:15:05Z</time>
      </trkpt>
      <trkpt lat="43.62118" lon="7.05079">
        <ele>205</ele>
        <time>2009-05-29T10:15:10Z</time>
      </trkpt>
      <trkpt lat="43.62117" lon="7.05073">
        <ele>201</ele>
        <time>2009-05-29T10:15:15Z</time>
      </trkpt>
      <trkpt lat="43.62113" lon="7.05069">
        <ele>198</ele>
        <time>2009-05-29T10:15:23Z</time>
      </trkpt>
      <trkpt lat="43.62109" lon="7.05065">
        <ele>195</ele>
        <time>2009-05-29T10:15:31Z</time>
      </trkpt>
      <trkpt lat="43.62113" lon="7.0506">
        <ele>194</ele>
        <time>2009-05-29T10:15:33Z</time>
      </trkpt>
      <trkpt lat="43.62117" lon="7.05056">
        <ele>201</ele>
        <time>2009-05-29T10:15:38Z</time>
      </trkpt>
      <trkpt lat="43.62116" lon="7.05052">
        <ele>194</ele>
        <time>2009-05-29T10:15:55Z</time>
      </trkpt>
      <trkpt lat="43.62112" lon="7.0505">
        <ele>191</ele>
        <time>2009-05-29T10:16:15Z</time>
      </trkpt>
      <trkpt lat="43.62111" lon="7.05049">
        <ele>188</ele>
        <time>2009-05-29T10:16:18Z</time>
      </trkpt>
      <trkpt lat="43.62082" lon="7.04995">
        <ele>188</ele>
        <time>2009-05-29T10:16:30Z</time>
      </trkpt>
      <trkpt lat="43.62078" lon="7.0499">
        <ele>187</ele>
        <time>2009-05-29T10:16:33Z</time>
      </trkpt>
      <trkpt lat="43.62076" lon="7.04984">
        <ele>182</ele>
        <time>2009-05-29T10:16:38Z</time>
      </trkpt>
      <trkpt lat="43.6208" lon="7.04981">
        <ele>172</ele>
        <time>2009-05-29T10:16:45Z</time>
      </trkpt>
      <trkpt lat="43.62081" lon="7.04973">
        <ele>161</ele>
        <time>2009-05-29T10:17:18Z</time>
      </trkpt>
      <trkpt lat="43.6206" lon="7.04943">
        <ele>160</ele>
        <time>2009-05-29T10:17:19Z</time>
      </trkpt>
      <trkpt lat="43.62054" lon="7.04931">
        <ele>162</ele>
        <time>2009-05-29T10:17:22Z</time>
      </trkpt>
      <trkpt lat="43.62048" lon="7.04918">
        <ele>165</ele>
        <time>2009-05-29T10:17:31Z</time>
      </trkpt>
      <trkpt lat="43.62053" lon="7.04923">
        <ele>164</ele>
        <time>2009-05-29T10:17:32Z</time>
      </trkpt>
      <trkpt lat="43.62058" lon="7.04929">
        <ele>163</ele>
        <time>2009-05-29T10:17:33Z</time>
      </trkpt>
      <trkpt lat="43.62065" lon="7.04935">
        <ele>163</ele>
        <time>2009-05-29T10:17:36Z</time>
      </trkpt>
      <trkpt lat="43.62067" lon="7.04941">
        <ele>161</ele>
        <time>2009-05-29T10:17:38Z</time>
      </trkpt>
      <trkpt lat="43.62071" lon="7.04941">
        <ele>167</ele>
        <time>2009-05-29T10:18:01Z</time>
      </trkpt>
      <trkpt lat="43.62073" lon="7.04944">
        <ele>182</ele>
        <time>2009-05-29T10:20:02Z</time>
      </trkpt>
      <trkpt lat="43.62075" lon="7.04952">
        <ele>159</ele>
        <time>2009-05-29T10:20:10Z</time>
      </trkpt>
      <trkpt lat="43.62077" lon="7.04957">
        <ele>142</ele>
        <time>2009-05-29T10:20:23Z</time>
      </trkpt>
      <trkpt lat="43.62079" lon="7.04961">
        <ele>139</ele>
        <time>2009-05-29T10:25:11Z</time>
      </trkpt>
      <trkpt lat="43.62062" lon="7.04906">
        <ele>137</ele>
        <time>2009-05-29T10:25:14Z</time>
      </trkpt>
      <trkpt lat="43.62053" lon="7.04903">
        <ele>137</ele>
        <time>2009-05-29T10:25:16Z</time>
      </trkpt>
      <trkpt lat="43.62048" lon="7.04902">
        <ele>137</ele>
        <time>2009-05-29T10:25:17Z</time>
      </trkpt>
      <trkpt lat="43.62041" lon="7.04894">
        <ele>137</ele>
        <time>2009-05-29T10:25:20Z</time>
      </trkpt>
      <trkpt lat="43.62037" lon="7.0489">
        <ele>137</ele>
        <time>2009-05-29T10:25:21Z</time>
      </trkpt>
      <trkpt lat="43.6203" lon="7.04889">
        <ele>137</ele>
        <time>2009-05-29T10:25:22Z</time>
      </trkpt>
      <trkpt lat="43.62025" lon="7.04886">
        <ele>137</ele>
        <time>2009-05-29T10:25:23Z</time>
      </trkpt>
      <trkpt lat="43.61999" lon="7.04867">
        <ele>137</ele>
        <time>2009-05-29T10:25:31Z</time>
      </trkpt>
      <trkpt lat="43.61985" lon="7.04869">
        <ele>137</ele>
        <time>2009-05-29T10:25:33Z</time>
      </trkpt>
      <trkpt lat="43.61979" lon="7.0487">
        <ele>137</ele>
        <time>2009-05-29T10:25:34Z</time>
      </trkpt>
      <trkpt lat="43.61973" lon="7.04871">
        <ele>137</ele>
        <time>2009-05-29T10:25:35Z</time>
      </trkpt>
      <trkpt lat="43.61962" lon="7.04862">
        <ele>137</ele>
        <time>2009-05-29T10:25:38Z</time>
      </trkpt>
      <trkpt lat="43.61957" lon="7.04857">
        <ele>137</ele>
        <time>2009-05-29T10:25:39Z</time>
      </trkpt>
      <trkpt lat="43.61953" lon="7.04853">
        <ele>137</ele>
        <time>2009-05-29T10:25:40Z</time>
      </trkpt>
      <trkpt lat="43.61949" lon="7.04849">
        <ele>137</ele>
        <time>2009-05-29T10:25:41Z</time>
      </trkpt>
      <trkpt lat="43.61938" lon="7.04838">
        <ele>137</ele>
        <time>2009-05-29T10:25:44Z</time>
      </trkpt>
      <trkpt lat="43.61935" lon="7.04831">
        <ele>137</ele>
        <time>2009-05-29T10:25:45Z</time>
      </trkpt>
      <trkpt lat="43.61931" lon="7.04826">
        <ele>138</ele>
        <time>2009-05-29T10:25:46Z</time>
      </trkpt>
      <trkpt lat="43.61908" lon="7.04788">
        <ele>138</ele>
        <time>2009-05-29T10:25:55Z</time>
      </trkpt>
      <trkpt lat="43.61903" lon="7.04785">
        <ele>137</ele>
        <time>2009-05-29T10:25:56Z</time>
      </trkpt>
      <trkpt lat="43.61899" lon="7.04775">
        <ele>137</ele>
        <time>2009-05-29T10:25:58Z</time>
      </trkpt>
      <trkpt lat="43.61889" lon="7.04761">
        <ele>137</ele>
        <time>2009-05-29T10:26:02Z</time>
      </trkpt>
      <trkpt lat="43.61883" lon="7.04753">
        <ele>137</ele>
        <time>2009-05-29T10:26:04Z</time>
      </trkpt>
      <trkpt lat="43.61871" lon="7.04718">
        <ele>138</ele>
        <time>2009-05-29T10:26:10Z</time>
      </trkpt>
      <trkpt lat="43.61868" lon="7.04713">
        <ele>138</ele>
        <time>2009-05-29T10:26:11Z</time>
      </trkpt>
      <trkpt lat="43.61861" lon="7.04697">
        <ele>138</ele>
        <time>2009-05-29T10:26:14Z</time>
      </trkpt>
      <trkpt lat="43.61858" lon="7.04691">
        <ele>138</ele>
        <time>2009-05-29T10:26:15Z</time>
      </trkpt>
      <trkpt lat="43.61856" lon="7.04683">
        <ele>138</ele>
        <time>2009-05-29T10:26:16Z</time>
      </trkpt>
      <trkpt lat="43.61853" lon="7.04677">
        <ele>138</ele>
        <time>2009-05-29T10:26:17Z</time>
      </trkpt>
      <trkpt lat="43.61851" lon="7.0467">
        <ele>138</ele>
        <time>2009-05-29T10:26:18Z</time>
      </trkpt>
      <trkpt lat="43.6183" lon="7.04621">
        <ele>138</ele>
        <time>2009-05-29T10:26:26Z</time>
      </trkpt>
      <trkpt lat="43.61823" lon="7.0462">
        <ele>138</ele>
        <time>2009-05-29T10:26:27Z</time>
      </trkpt>
      <trkpt lat="43.61819" lon="7.04616">
        <ele>138</ele>
        <time>2009-05-29T10:26:28Z</time>
      </trkpt>
      <trkpt lat="43.61813" lon="7.04611">
        <ele>138</ele>
        <time>2009-05-29T10:26:30Z</time>
      </trkpt>
      <trkpt lat="43.61806" lon="7.04604">
        <ele>139</ele>
        <time>2009-05-29T10:26:32Z</time>
      </trkpt>
      <trkpt lat="43.61802" lon="7.04594">
        <ele>139</ele>
        <time>2009-05-29T10:26:34Z</time>
      </trkpt>
      <trkpt lat="43.61795" lon="7.04588">
        <ele>138</ele>
        <time>2009-05-29T10:26:36Z</time>
      </trkpt>
      <trkpt lat="43.61793" lon="7.04575">
        <ele>138</ele>
        <time>2009-05-29T10:26:37Z</time>
      </trkpt>
      <trkpt lat="43.6179" lon="7.04565">
        <ele>138</ele>
        <time>2009-05-29T10:26:38Z</time>
      </trkpt>
      <trkpt lat="43.61787" lon="7.0456">
        <ele>138</ele>
        <time>2009-05-29T10:26:39Z</time>
      </trkpt>
      <trkpt lat="43.61784" lon="7.04551">
        <ele>138</ele>
        <time>2009-05-29T10:26:40Z</time>
      </trkpt>
      <trkpt lat="43.61781" lon="7.04545">
        <ele>138</ele>
        <time>2009-05-29T10:26:41Z</time>
      </trkpt>
      <trkpt lat="43.61778" lon="7.0454">
        <ele>138</ele>
        <time>2009-05-29T10:26:42Z</time>
      </trkpt>
      <trkpt lat="43.61773" lon="7.04533">
        <ele>138</ele>
        <time>2009-05-29T10:26:43Z</time>
      </trkpt>
      <trkpt lat="43.61772" lon="7.04526">
        <ele>139</ele>
        <time>2009-05-29T10:26:44Z</time>
      </trkpt>
      <trkpt lat="43.61772" lon="7.04518">
        <ele>139</ele>
        <time>2009-05-29T10:26:45Z</time>
      </trkpt>
      <trkpt lat="43.61769" lon="7.04513">
        <ele>139</ele>
        <time>2009-05-29T10:26:46Z</time>
      </trkpt>
      <trkpt lat="43.61767" lon="7.04507">
        <ele>139</ele>
        <time>2009-05-29T10:26:47Z</time>
      </trkpt>
      <trkpt lat="43.61763" lon="7.04498">
        <ele>140</ele>
        <time>2009-05-29T10:26:49Z</time>
      </trkpt>
      <trkpt lat="43.61741" lon="7.04466">
        <ele>140</ele>
        <time>2009-05-29T10:26:58Z</time>
      </trkpt>
      <trkpt lat="43.61749" lon="7.04454">
        <ele>140</ele>
        <time>2009-05-29T10:27:00Z</time>
      </trkpt>
      <trkpt lat="43.61746" lon="7.04446">
        <ele>140</ele>
        <time>2009-05-29T10:27:02Z</time>
      </trkpt>
      <trkpt lat="43.61744" lon="7.04436">
        <ele>140</ele>
        <time>2009-05-29T10:27:04Z</time>
      </trkpt>
      <trkpt lat="43.61739" lon="7.04412">
        <ele>141</ele>
        <time>2009-05-29T10:27:09Z</time>
      </trkpt>
      <trkpt lat="43.61735" lon="7.04403">
        <ele>141</ele>
        <time>2009-05-29T10:27:11Z</time>
      </trkpt>
      <trkpt lat="43.61735" lon="7.04394">
        <ele>141</ele>
        <time>2009-05-29T10:27:13Z</time>
      </trkpt>
      <trkpt lat="43.61734" lon="7.04385">
        <ele>141</ele>
        <time>2009-05-29T10:27:15Z</time>
      </trkpt>
      <trkpt lat="43.61731" lon="7.04372">
        <ele>141</ele>
        <time>2009-05-29T10:27:17Z</time>
      </trkpt>
      <trkpt lat="43.61721" lon="7.04367">
        <ele>140</ele>
        <time>2009-05-29T10:27:18Z</time>
      </trkpt>
      <trkpt lat="43.61717" lon="7.0432">
        <ele>140</ele>
        <time>2009-05-29T10:27:26Z</time>
      </trkpt>
      <trkpt lat="43.6171" lon="7.04311">
        <ele>140</ele>
        <time>2009-05-29T10:27:27Z</time>
      </trkpt>
      <trkpt lat="43.61703" lon="7.04307">
        <ele>140</ele>
        <time>2009-05-29T10:27:28Z</time>
      </trkpt>
      <trkpt lat="43.617" lon="7.043">
        <ele>140</ele>
        <time>2009-05-29T10:27:29Z</time>
      </trkpt>
      <trkpt lat="43.61696" lon="7.04291">
        <ele>141</ele>
        <time>2009-05-29T10:27:30Z</time>
      </trkpt>
      <trkpt lat="43.61697" lon="7.04281">
        <ele>141</ele>
        <time>2009-05-29T10:27:31Z</time>
      </trkpt>
      <trkpt lat="43.6169" lon="7.04275">
        <ele>141</ele>
        <time>2009-05-29T10:27:32Z</time>
      </trkpt>
      <trkpt lat="43.61688" lon="7.04269">
        <ele>141</ele>
        <time>2009-05-29T10:27:33Z</time>
      </trkpt>
      <trkpt lat="43.61683" lon="7.04261">
        <ele>141</ele>
        <time>2009-05-29T10:27:34Z</time>
      </trkpt>
      <trkpt lat="43.61674" lon="7.04251">
        <ele>141</ele>
        <time>2009-05-29T10:27:36Z</time>
      </trkpt>
      <trkpt lat="43.61662" lon="7.04209">
        <ele>141</ele>
        <time>2009-05-29T10:27:45Z</time>
      </trkpt>
      <trkpt lat="43.61656" lon="7.04206">
        <ele>140</ele>
        <time>2009-05-29T10:27:46Z</time>
      </trkpt>
      <trkpt lat="43.6165" lon="7.042">
        <ele>140</ele>
        <time>2009-05-29T10:27:48Z</time>
      </trkpt>
      <trkpt lat="43.61647" lon="7.04184">
        <ele>140</ele>
        <time>2009-05-29T10:27:51Z</time>
      </trkpt>
      <trkpt lat="43.61641" lon="7.04184">
        <ele>140</ele>
        <time>2009-05-29T10:27:52Z</time>
      </trkpt>
      <trkpt lat="43.61642" lon="7.04171">
        <ele>140</ele>
        <time>2009-05-29T10:27:54Z</time>
      </trkpt>
      <trkpt lat="43.61632" lon="7.04141">
        <ele>141</ele>
        <time>2009-05-29T10:28:04Z</time>
      </trkpt>
      <trkpt lat="43.61622" lon="7.04149">
        <ele>142</ele>
        <time>2009-05-29T10:28:08Z</time>
      </trkpt>
      <trkpt lat="43.61617" lon="7.04146">
        <ele>142</ele>
        <time>2009-05-29T10:28:11Z</time>
      </trkpt>
      <trkpt lat="43.61611" lon="7.04145">
        <ele>143</ele>
        <time>2009-05-29T10:28:19Z</time>
      </trkpt>
      <trkpt lat="43.61601" lon="7.04144">
        <ele>142</ele>
        <time>2009-05-29T10:28:27Z</time>
      </trkpt>
      <trkpt lat="43.61595" lon="7.0415">
        <ele>142</ele>
        <time>2009-05-29T10:28:28Z</time>
      </trkpt>
      <trkpt lat="43.61589" lon="7.04154">
        <ele>142</ele>
        <time>2009-05-29T10:28:29Z</time>
      </trkpt>
      <trkpt lat="43.61578" lon="7.04156">
        <ele>141</ele>
        <time>2009-05-29T10:28:33Z</time>
      </trkpt>
      <trkpt lat="43.61573" lon="7.0416">
        <ele>141</ele>
        <time>2009-05-29T10:28:36Z</time>
      </trkpt>
      <trkpt lat="43.61567" lon="7.04168">
        <ele>141</ele>
        <time>2009-05-29T10:28:38Z</time>
      </trkpt>
      <trkpt lat="43.61562" lon="7.04174">
        <ele>141</ele>
        <time>2009-05-29T10:28:40Z</time>
      </trkpt>
      <trkpt lat="43.61531" lon="7.04188">
        <ele>141</ele>
        <time>2009-05-29T10:29:01Z</time>
      </trkpt>
      <trkpt lat="43.61523" lon="7.04185">
        <ele>141</ele>
        <time>2009-05-29T10:29:04Z</time>
      </trkpt>
      <trkpt lat="43.61514" lon="7.04186">
        <ele>141</ele>
        <time>2009-05-29T10:29:10Z</time>
      </trkpt>
      <trkpt lat="43.61507" lon="7.04184">
        <ele>141</ele>
        <time>2009-05-29T10:29:12Z</time>
      </trkpt>
      <trkpt lat="43.6151" lon="7.04173">
        <ele>141</ele>
        <time>2009-05-29T10:29:13Z</time>
      </trkpt>
      <trkpt lat="43.61504" lon="7.04176">
        <ele>141</ele>
        <time>2009-05-29T10:29:14Z</time>
      </trkpt>
      <trkpt lat="43.61492" lon="7.04195">
        <ele>141</ele>
        <time>2009-05-29T10:29:23Z</time>
      </trkpt>
      <trkpt lat="43.61482" lon="7.04206">
        <ele>141</ele>
        <time>2009-05-29T10:29:24Z</time>
      </trkpt>
      <trkpt lat="43.61483" lon="7.04212">
        <ele>141</ele>
        <time>2009-05-29T10:29:26Z</time>
      </trkpt>
      <trkpt lat="43.6148" lon="7.04219">
        <ele>141</ele>
        <time>2009-05-29T10:29:28Z</time>
      </trkpt>
      <trkpt lat="43.61476" lon="7.04225">
        <ele>141</ele>
        <time>2009-05-29T10:29:30Z</time>
      </trkpt>
      <trkpt lat="43.61472" lon="7.04229">
        <ele>141</ele>
        <time>2009-05-29T10:29:33Z</time>
      </trkpt>
      <trkpt lat="43.61462" lon="7.04241">
        <ele>141</ele>
        <time>2009-05-29T10:29:44Z</time>
      </trkpt>
      <trkpt lat="43.61459" lon="7.04247">
        <ele>141</ele>
        <time>2009-05-29T10:29:51Z</time>
      </trkpt>
      <trkpt lat="43.61458" lon="7.04254">
        <ele>141</ele>
        <time>2009-05-29T10:29:54Z</time>
      </trkpt>
      <trkpt lat="43.61456" lon="7.04262">
        <ele>141</ele>
        <time>2009-05-29T10:29:58Z</time>
      </trkpt>
      <trkpt lat="43.61448" lon="7.04262">
        <ele>144</ele>
        <time>2009-05-29T10:30:10Z</time>
      </trkpt>
      <trkpt lat="43.61439" lon="7.04261">
        <ele>146</ele>
        <time>2009-05-29T10:30:15Z</time>
      </trkpt>
      <trkpt lat="43.61433" lon="7.04262">
        <ele>149</ele>
        <time>2009-05-29T10:30:19Z</time>
      </trkpt>
      <trkpt lat="43.61426" lon="7.04256">
        <ele>150</ele>
        <time>2009-05-29T10:30:27Z</time>
      </trkpt>
      <trkpt lat="43.61422" lon="7.04254">
        <ele>150</ele>
        <time>2009-05-29T10:30:32Z</time>
      </trkpt>
      <trkpt lat="43.61418" lon="7.0425">
        <ele>149</ele>
        <time>2009-05-29T10:30:37Z</time>
      </trkpt>
      <trkpt lat="43.61415" lon="7.04243">
        <ele>149</ele>
        <time>2009-05-29T10:30:47Z</time>
      </trkpt>
      <trkpt lat="43.61415" lon="7.04232">
        <ele>150</ele>
        <time>2009-05-29T10:30:54Z</time>
      </trkpt>
      <trkpt lat="43.61405" lon="7.04215">
        <ele>151</ele>
        <time>2009-05-29T10:31:10Z</time>
      </trkpt>
      <trkpt lat="43.61407" lon="7.04209">
        <ele>151</ele>
        <time>2009-05-29T10:31:11Z</time>
      </trkpt>
      <trkpt lat="43.61409" lon="7.04202">
        <ele>152</ele>
        <time>2009-05-29T10:31:12Z</time>
      </trkpt>
      <trkpt lat="43.6141" lon="7.04193">
        <ele>152</ele>
        <time>2009-05-29T10:31:15Z</time>
      </trkpt>
      <trkpt lat="43.61409" lon="7.04185">
        <ele>152</ele>
        <time>2009-05-29T10:31:18Z</time>
      </trkpt>
      <trkpt lat="43.61403" lon="7.04162">
        <ele>152</ele>
        <time>2009-05-29T10:31:27Z</time>
      </trkpt>
      <trkpt lat="43.61405" lon="7.04152">
        <ele>152</ele>
        <time>2009-05-29T10:31:28Z</time>
      </trkpt>
      <trkpt lat="43.61409" lon="7.04139">
        <ele>152</ele>
        <time>2009-05-29T10:31:30Z</time>
      </trkpt>
      <trkpt lat="43.61395" lon="7.04131">
        <ele>149</ele>
        <time>2009-05-29T10:31:31Z</time>
      </trkpt>
      <trkpt lat="43.61392" lon="7.04125">
        <ele>148</ele>
        <time>2009-05-29T10:31:33Z</time>
      </trkpt>
      <trkpt lat="43.61392" lon="7.04118">
        <ele>148</ele>
        <time>2009-05-29T10:31:35Z</time>
      </trkpt>
      <trkpt lat="43.61391" lon="7.04111">
        <ele>148</ele>
        <time>2009-05-29T10:31:37Z</time>
      </trkpt>
      <trkpt lat="43.61388" lon="7.04106">
        <ele>148</ele>
        <time>2009-05-29T10:31:40Z</time>
      </trkpt>
      <trkpt lat="43.61384" lon="7.04086">
        <ele>149</ele>
        <time>2009-05-29T10:31:49Z</time>
      </trkpt>
      <trkpt lat="43.61375" lon="7.04081">
        <ele>150</ele>
        <time>2009-05-29T10:31:50Z</time>
      </trkpt>
      <trkpt lat="43.61372" lon="7.04073">
        <ele>150</ele>
        <time>2009-05-29T10:31:51Z</time>
      </trkpt>
      <trkpt lat="43.61371" lon="7.04064">
        <ele>151</ele>
        <time>2009-05-29T10:31:52Z</time>
      </trkpt>
      <trkpt lat="43.61366" lon="7.04063">
        <ele>151</ele>
        <time>2009-05-29T10:31:53Z</time>
      </trkpt>
      <trkpt lat="43.61358" lon="7.04055">
        <ele>151</ele>
        <time>2009-05-29T10:31:57Z</time>
      </trkpt>
      <trkpt lat="43.61354" lon="7.0405">
        <ele>152</ele>
        <time>2009-05-29T10:31:58Z</time>
      </trkpt>
      <trkpt lat="43.61353" lon="7.04041">
        <ele>152</ele>
        <time>2009-05-29T10:31:59Z</time>
      </trkpt>
      <trkpt lat="43.6135" lon="7.04035">
        <ele>153</ele>
        <time>2009-05-29T10:32:00Z</time>
      </trkpt>
      <trkpt lat="43.61344" lon="7.04031">
        <ele>154</ele>
        <time>2009-05-29T10:32:01Z</time>
      </trkpt>
      <trkpt lat="43.6132" lon="7.03988">
        <ele>154</ele>
        <time>2009-05-29T10:32:10Z</time>
      </trkpt>
      <trkpt lat="43.61317" lon="7.03982">
        <ele>155</ele>
        <time>2009-05-29T10:32:11Z</time>
      </trkpt>
      <trkpt lat="43.61312" lon="7.03974">
        <ele>155</ele>
        <time>2009-05-29T10:32:13Z</time>
      </trkpt>
      <trkpt lat="43.61306" lon="7.03962">
        <ele>156</ele>
        <time>2009-05-29T10:32:15Z</time>
      </trkpt>
      <trkpt lat="43.61301" lon="7.03959">
        <ele>157</ele>
        <time>2009-05-29T10:32:16Z</time>
      </trkpt>
      <trkpt lat="43.61291" lon="7.03949">
        <ele>157</ele>
        <time>2009-05-29T10:32:19Z</time>
      </trkpt>
      <trkpt lat="43.6129" lon="7.03934">
        <ele>159</ele>
        <time>2009-05-29T10:32:21Z</time>
      </trkpt>
      <trkpt lat="43.61286" lon="7.03931">
        <ele>158</ele>
        <time>2009-05-29T10:32:22Z</time>
      </trkpt>
      <trkpt lat="43.61286" lon="7.03922">
        <ele>159</ele>
        <time>2009-05-29T10:32:23Z</time>
      </trkpt>
      <trkpt lat="43.61273" lon="7.03885">
        <ele>159</ele>
        <time>2009-05-29T10:32:31Z</time>
      </trkpt>
      <trkpt lat="43.61269" lon="7.0388">
        <ele>157</ele>
        <time>2009-05-29T10:32:32Z</time>
      </trkpt>
      <trkpt lat="43.61265" lon="7.0387">
        <ele>158</ele>
        <time>2009-05-29T10:32:34Z</time>
      </trkpt>
      <trkpt lat="43.61265" lon="7.03858">
        <ele>158</ele>
        <time>2009-05-29T10:32:36Z</time>
      </trkpt>
      <trkpt lat="43.61261" lon="7.03855">
        <ele>158</ele>
        <time>2009-05-29T10:32:37Z</time>
      </trkpt>
      <trkpt lat="43.61258" lon="7.03847">
        <ele>158</ele>
        <time>2009-05-29T10:32:39Z</time>
      </trkpt>
      <trkpt lat="43.61249" lon="7.03838">
        <ele>159</ele>
        <time>2009-05-29T10:32:42Z</time>
      </trkpt>
      <trkpt lat="43.61249" lon="7.03832">
        <ele>160</ele>
        <time>2009-05-29T10:32:43Z</time>
      </trkpt>
      <trkpt lat="43.61244" lon="7.03829">
        <ele>161</ele>
        <time>2009-05-29T10:32:45Z</time>
      </trkpt>
      <trkpt lat="43.61248" lon="7.03815">
        <ele>163</ele>
        <time>2009-05-29T10:32:46Z</time>
      </trkpt>
      <trkpt lat="43.61239" lon="7.03807">
        <ele>164</ele>
        <time>2009-05-29T10:32:54Z</time>
      </trkpt>
      <trkpt lat="43.61233" lon="7.038">
        <ele>165</ele>
        <time>2009-05-29T10:32:55Z</time>
      </trkpt>
      <trkpt lat="43.61227" lon="7.03793">
        <ele>164</ele>
        <time>2009-05-29T10:32:56Z</time>
      </trkpt>
      <trkpt lat="43.61221" lon="7.03791">
        <ele>164</ele>
        <time>2009-05-29T10:32:57Z</time>
      </trkpt>
      <trkpt lat="43.61217" lon="7.03788">
        <ele>164</ele>
        <time>2009-05-29T10:33:00Z</time>
      </trkpt>
      <trkpt lat="43.61212" lon="7.03788">
        <ele>163</ele>
        <time>2009-05-29T10:33:01Z</time>
      </trkpt>
      <trkpt lat="43.61205" lon="7.03785">
        <ele>163</ele>
        <time>2009-05-29T10:33:03Z</time>
      </trkpt>
      <trkpt lat="43.61198" lon="7.03774">
        <ele>164</ele>
        <time>2009-05-29T10:33:08Z</time>
      </trkpt>
      <trkpt lat="43.61194" lon="7.0377">
        <ele>164</ele>
        <time>2009-05-29T10:33:11Z</time>
      </trkpt>
      <trkpt lat="43.61189" lon="7.03768">
        <ele>165</ele>
        <time>2009-05-29T10:33:13Z</time>
      </trkpt>
      <trkpt lat="43.61185" lon="7.03762">
        <ele>165</ele>
        <time>2009-05-29T10:33:16Z</time>
      </trkpt>
      <trkpt lat="43.61183" lon="7.03755">
        <ele>164</ele>
        <time>2009-05-29T10:33:18Z</time>
      </trkpt>
      <trkpt lat="43.6117" lon="7.0374">
        <ele>165</ele>
        <time>2009-05-29T10:33:27Z</time>
      </trkpt>
      <trkpt lat="43.61167" lon="7.03734">
        <ele>166</ele>
        <time>2009-05-29T10:33:29Z</time>
      </trkpt>
      <trkpt lat="43.61168" lon="7.03723">
        <ele>167</ele>
        <time>2009-05-29T10:33:31Z</time>
      </trkpt>
      <trkpt lat="43.61164" lon="7.03718">
        <ele>167</ele>
        <time>2009-05-29T10:33:34Z</time>
      </trkpt>
      <trkpt lat="43.61159" lon="7.03715">
        <ele>167</ele>
        <time>2009-05-29T10:33:36Z</time>
      </trkpt>
      <trkpt lat="43.61154" lon="7.03713">
        <ele>168</ele>
        <time>2009-05-29T10:33:38Z</time>
      </trkpt>
      <trkpt lat="43.61142" lon="7.03698">
        <ele>168</ele>
        <time>2009-05-29T10:33:46Z</time>
      </trkpt>
      <trkpt lat="43.61135" lon="7.03699">
        <ele>170</ele>
        <time>2009-05-29T10:33:48Z</time>
      </trkpt>
      <trkpt lat="43.61136" lon="7.0369">
        <ele>171</ele>
        <time>2009-05-29T10:33:50Z</time>
      </trkpt>
      <trkpt lat="43.61139" lon="7.0368">
        <ele>172</ele>
        <time>2009-05-29T10:33:51Z</time>
      </trkpt>
      <trkpt lat="43.61138" lon="7.03672">
        <ele>173</ele>
        <time>2009-05-29T10:33:53Z</time>
      </trkpt>
      <trkpt lat="43.61133" lon="7.03665">
        <ele>172</ele>
        <time>2009-05-29T10:33:57Z</time>
      </trkpt>
      <trkpt lat="43.61128" lon="7.03659">
        <ele>173</ele>
        <time>2009-05-29T10:33:59Z</time>
      </trkpt>
      <trkpt lat="43.61124" lon="7.03653">
        <ele>174</ele>
        <time>2009-05-29T10:34:01Z</time>
      </trkpt>
      <trkpt lat="43.61095" lon="7.03651">
        <ele>173</ele>
        <time>2009-05-29T10:34:10Z</time>
      </trkpt>
      <trkpt lat="43.6109" lon="7.03646">
        <ele>173</ele>
        <time>2009-05-29T10:34:12Z</time>
      </trkpt>
      <trkpt lat="43.61086" lon="7.03649">
        <ele>173</ele>
        <time>2009-05-29T10:34:15Z</time>
      </trkpt>
      <trkpt lat="43.61069" lon="7.03658">
        <ele>171</ele>
        <time>2009-05-29T10:34:21Z</time>
      </trkpt>
      <trkpt lat="43.61051" lon="7.03664">
        <ele>164</ele>
        <time>2009-05-29T10:34:22Z</time>
      </trkpt>
      <trkpt lat="43.61047" lon="7.03663">
        <ele>161</ele>
        <time>2009-05-29T10:34:23Z</time>
      </trkpt>
      <trkpt lat="43.61039" lon="7.03667">
        <ele>161</ele>
        <time>2009-05-29T10:34:32Z</time>
      </trkpt>
      <trkpt lat="43.61037" lon="7.03668">
        <ele>161</ele>
        <time>2009-05-29T10:34:40Z</time>
      </trkpt>
      <trkpt lat="43.61034" lon="7.03671">
        <ele>162</ele>
        <time>2009-05-29T10:34:45Z</time>
      </trkpt>
      <trkpt lat="43.61033" lon="7.0367">
        <ele>161</ele>
        <time>2009-05-29T10:34:46Z</time>
      </trkpt>
      <trkpt lat="43.61029" lon="7.03666">
        <ele>166</ele>
        <time>2009-05-29T10:35:05Z</time>
      </trkpt>
      <trkpt lat="43.61026" lon="7.03661">
        <ele>167</ele>
        <time>2009-05-29T10:35:11Z</time>
      </trkpt>
      <trkpt lat="43.61023" lon="7.03661">
        <ele>167</ele>
        <time>2009-05-29T10:35:17Z</time>
      </trkpt>
      <trkpt lat="43.6102" lon="7.03659">
        <ele>168</ele>
        <time>2009-05-29T10:35:25Z</time>
      </trkpt>
      <trkpt lat="43.60978" lon="7.03599">
        <ele>168</ele>
        <time>2009-05-29T10:35:33Z</time>
      </trkpt>
      <trkpt lat="43.60977" lon="7.03586">
        <ele>168</ele>
        <time>2009-05-29T10:35:34Z</time>
      </trkpt>
      <trkpt lat="43.6097" lon="7.0358">
        <ele>168</ele>
        <time>2009-05-29T10:35:36Z</time>
      </trkpt>
      <trkpt lat="43.6096" lon="7.03581">
        <ele>168</ele>
        <time>2009-05-29T10:35:37Z</time>
      </trkpt>
      <trkpt lat="43.60951" lon="7.03573">
        <ele>168</ele>
        <time>2009-05-29T10:35:39Z</time>
      </trkpt>
      <trkpt lat="43.60945" lon="7.03572">
        <ele>168</ele>
        <time>2009-05-29T10:35:40Z</time>
      </trkpt>
      <trkpt lat="43.60939" lon="7.0357">
        <ele>168</ele>
        <time>2009-05-29T10:35:41Z</time>
      </trkpt>
      <trkpt lat="43.60935" lon="7.03565">
        <ele>168</ele>
        <time>2009-05-29T10:35:42Z</time>
      </trkpt>
      <trkpt lat="43.60926" lon="7.03554">
        <ele>168</ele>
        <time>2009-05-29T10:35:45Z</time>
      </trkpt>
      <trkpt lat="43.60923" lon="7.03547">
        <ele>169</ele>
        <time>2009-05-29T10:35:47Z</time>
      </trkpt>
      <trkpt lat="43.60912" lon="7.03524">
        <ele>170</ele>
        <time>2009-05-29T10:35:57Z</time>
      </trkpt>
      <trkpt lat="43.60907" lon="7.03522">
        <ele>171</ele>
        <time>2009-05-29T10:36:00Z</time>
      </trkpt>
      <trkpt lat="43.609" lon="7.03521">
        <ele>170</ele>
        <time>2009-05-29T10:36:01Z</time>
      </trkpt>
      <trkpt lat="43.60894" lon="7.03516">
        <ele>170</ele>
        <time>2009-05-29T10:36:04Z</time>
      </trkpt>
      <trkpt lat="43.60891" lon="7.03502">
        <ele>172</ele>
        <time>2009-05-29T10:36:08Z</time>
      </trkpt>
      <trkpt lat="43.60886" lon="7.03497">
        <ele>172</ele>
        <time>2009-05-29T10:36:11Z</time>
      </trkpt>
      <trkpt lat="43.60883" lon="7.03502">
        <ele>172</ele>
        <time>2009-05-29T10:36:19Z</time>
      </trkpt>
      <trkpt lat="43.60872" lon="7.03497">
        <ele>173</ele>
        <time>2009-05-29T10:36:34Z</time>
      </trkpt>
      <trkpt lat="43.6087" lon="7.03491">
        <ele>173</ele>
        <time>2009-05-29T10:36:35Z</time>
      </trkpt>
      <trkpt lat="43.60864" lon="7.03489">
        <ele>173</ele>
        <time>2009-05-29T10:36:36Z</time>
      </trkpt>
      <trkpt lat="43.60858" lon="7.03485">
        <ele>172</ele>
        <time>2009-05-29T10:36:37Z</time>
      </trkpt>
      <trkpt lat="43.60852" lon="7.03467">
        <ele>174</ele>
        <time>2009-05-29T10:36:40Z</time>
      </trkpt>
      <trkpt lat="43.60846" lon="7.03462">
        <ele>175</ele>
        <time>2009-05-29T10:36:41Z</time>
      </trkpt>
      <trkpt lat="43.60843" lon="7.03458">
        <ele>174</ele>
        <time>2009-05-29T10:36:42Z</time>
      </trkpt>
      <trkpt lat="43.60837" lon="7.03447">
        <ele>175</ele>
        <time>2009-05-29T10:36:46Z</time>
      </trkpt>
      <trkpt lat="43.60842" lon="7.03438">
        <ele>173</ele>
        <time>2009-05-29T10:36:48Z</time>
      </trkpt>
      <trkpt lat="43.60846" lon="7.03431">
        <ele>173</ele>
        <time>2009-05-29T10:36:49Z</time>
      </trkpt>
      <trkpt lat="43.60848" lon="7.0341">
        <ele>173</ele>
        <time>2009-05-29T10:36:57Z</time>
      </trkpt>
      <trkpt lat="43.60846" lon="7.03403">
        <ele>173</ele>
        <time>2009-05-29T10:36:58Z</time>
      </trkpt>
      <trkpt lat="43.60844" lon="7.03398">
        <ele>174</ele>
        <time>2009-05-29T10:36:59Z</time>
      </trkpt>
      <trkpt lat="43.60845" lon="7.03388">
        <ele>174</ele>
        <time>2009-05-29T10:37:00Z</time>
      </trkpt>
      <trkpt lat="43.60842" lon="7.03381">
        <ele>174</ele>
        <time>2009-05-29T10:37:02Z</time>
      </trkpt>
      <trkpt lat="43.60838" lon="7.03373">
        <ele>174</ele>
        <time>2009-05-29T10:37:04Z</time>
      </trkpt>
      <trkpt lat="43.60826" lon="7.03352">
        <ele>173</ele>
        <time>2009-05-29T10:37:10Z</time>
      </trkpt>
      <trkpt lat="43.60819" lon="7.03339">
        <ele>174</ele>
        <time>2009-05-29T10:37:12Z</time>
      </trkpt>
      <trkpt lat="43.60813" lon="7.03331">
        <ele>175</ele>
        <time>2009-05-29T10:37:14Z</time>
      </trkpt>
      <trkpt lat="43.60808" lon="7.03315">
        <ele>175</ele>
        <time>2009-05-29T10:37:17Z</time>
      </trkpt>
      <trkpt lat="43.60812" lon="7.03306">
        <ele>176</ele>
        <time>2009-05-29T10:37:18Z</time>
      </trkpt>
      <trkpt lat="43.60813" lon="7.03298">
        <ele>176</ele>
        <time>2009-05-29T10:37:19Z</time>
      </trkpt>
      <trkpt lat="43.60809" lon="7.03293">
        <ele>177</ele>
        <time>2009-05-29T10:37:20Z</time>
      </trkpt>
      <trkpt lat="43.60806" lon="7.03288">
        <ele>177</ele>
        <time>2009-05-29T10:37:21Z</time>
      </trkpt>
      <trkpt lat="43.60789" lon="7.03256">
        <ele>177</ele>
        <time>2009-05-29T10:37:29Z</time>
      </trkpt>
      <trkpt lat="43.60795" lon="7.03251">
        <ele>178</ele>
        <time>2009-05-29T10:37:30Z</time>
      </trkpt>
      <trkpt lat="43.60797" lon="7.03241">
        <ele>179</ele>
        <time>2009-05-29T10:37:31Z</time>
      </trkpt>
      <trkpt lat="43.60799" lon="7.03234">
        <ele>180</ele>
        <time>2009-05-29T10:37:32Z</time>
      </trkpt>
      <trkpt lat="43.60801" lon="7.03227">
        <ele>180</ele>
        <time>2009-05-29T10:37:33Z</time>
      </trkpt>
      <trkpt lat="43.60797" lon="7.0321">
        <ele>181</ele>
        <time>2009-05-29T10:37:37Z</time>
      </trkpt>
      <trkpt lat="43.60793" lon="7.03207">
        <ele>182</ele>
        <time>2009-05-29T10:37:38Z</time>
      </trkpt>
      <trkpt lat="43.6079" lon="7.03194">
        <ele>182</ele>
        <time>2009-05-29T10:37:40Z</time>
      </trkpt>
      <trkpt lat="43.60787" lon="7.03186">
        <ele>183</ele>
        <time>2009-05-29T10:37:42Z</time>
      </trkpt>
      <trkpt lat="43.60784" lon="7.03175">
        <ele>183</ele>
        <time>2009-05-29T10:37:44Z</time>
      </trkpt>
      <trkpt lat="43.60783" lon="7.03167">
        <ele>183</ele>
        <time>2009-05-29T10:37:46Z</time>
      </trkpt>
      <trkpt lat="43.6078" lon="7.03159">
        <ele>183</ele>
        <time>2009-05-29T10:37:48Z</time>
      </trkpt>
      <trkpt lat="43.60764" lon="7.03125">
        <ele>183</ele>
        <time>2009-05-29T10:37:57Z</time>
      </trkpt>
      <trkpt lat="43.60746" lon="7.03136">
        <ele>183</ele>
        <time>2009-05-29T10:37:58Z</time>
      </trkpt>
      <trkpt lat="43.60738" lon="7.03137">
        <ele>183</ele>
        <time>2009-05-29T10:37:59Z</time>
      </trkpt>
      <trkpt lat="43.60733" lon="7.03137">
        <ele>183</ele>
        <time>2009-05-29T10:38:00Z</time>
      </trkpt>
      <trkpt lat="43.60726" lon="7.03133">
        <ele>183</ele>
        <time>2009-05-29T10:38:02Z</time>
      </trkpt>
      <trkpt lat="43.60721" lon="7.03132">
        <ele>183</ele>
        <time>2009-05-29T10:38:03Z</time>
      </trkpt>
      <trkpt lat="43.60721" lon="7.03124">
        <ele>182</ele>
        <time>2009-05-29T10:38:04Z</time>
      </trkpt>
      <trkpt lat="43.60701" lon="7.03112">
        <ele>184</ele>
        <time>2009-05-29T10:38:09Z</time>
      </trkpt>
      <trkpt lat="43.60696" lon="7.03106">
        <ele>184</ele>
        <time>2009-05-29T10:38:12Z</time>
      </trkpt>
      <trkpt lat="43.60698" lon="7.03097">
        <ele>185</ele>
        <time>2009-05-29T10:38:13Z</time>
      </trkpt>
      <trkpt lat="43.60694" lon="7.03092">
        <ele>186</ele>
        <time>2009-05-29T10:38:15Z</time>
      </trkpt>
      <trkpt lat="43.60688" lon="7.03091">
        <ele>187</ele>
        <time>2009-05-29T10:38:17Z</time>
      </trkpt>
      <trkpt lat="43.60689" lon="7.03085">
        <ele>187</ele>
        <time>2009-05-29T10:38:18Z</time>
      </trkpt>
      <trkpt lat="43.60684" lon="7.03082">
        <ele>187</ele>
        <time>2009-05-29T10:38:20Z</time>
      </trkpt>
      <trkpt lat="43.60686" lon="7.03073">
        <ele>187</ele>
        <time>2009-05-29T10:38:21Z</time>
      </trkpt>
      <trkpt lat="43.60687" lon="7.03064">
        <ele>187</ele>
        <time>2009-05-29T10:38:22Z</time>
      </trkpt>
      <trkpt lat="43.60674" lon="7.03042">
        <ele>187</ele>
        <time>2009-05-29T10:38:31Z</time>
      </trkpt>
      <trkpt lat="43.60669" lon="7.03041">
        <ele>188</ele>
        <time>2009-05-29T10:38:33Z</time>
      </trkpt>
      <trkpt lat="43.60662" lon="7.03042">
        <ele>188</ele>
        <time>2009-05-29T10:38:34Z</time>
      </trkpt>
      <trkpt lat="43.60647" lon="7.03038">
        <ele>190</ele>
        <time>2009-05-29T10:38:35Z</time>
      </trkpt>
      <trkpt lat="43.60644" lon="7.03029">
        <ele>191</ele>
        <time>2009-05-29T10:38:37Z</time>
      </trkpt>
      <trkpt lat="43.60643" lon="7.03017">
        <ele>191</ele>
        <time>2009-05-29T10:38:40Z</time>
      </trkpt>
      <trkpt lat="43.60639" lon="7.03009">
        <ele>191</ele>
        <time>2009-05-29T10:38:43Z</time>
      </trkpt>
      <trkpt lat="43.60615" lon="7.02988">
        <ele>190</ele>
        <time>2009-05-29T10:38:52Z</time>
      </trkpt>
      <trkpt lat="43.60609" lon="7.02983">
        <ele>190</ele>
        <time>2009-05-29T10:38:53Z</time>
      </trkpt>
      <trkpt lat="43.60595" lon="7.02976">
        <ele>186</ele>
        <time>2009-05-29T10:38:54Z</time>
      </trkpt>
      <trkpt lat="43.6059" lon="7.02977">
        <ele>187</ele>
        <time>2009-05-29T10:38:55Z</time>
      </trkpt>
      <trkpt lat="43.6058" lon="7.02973">
        <ele>185</ele>
        <time>2009-05-29T10:38:56Z</time>
      </trkpt>
      <trkpt lat="43.60571" lon="7.02972">
        <ele>185</ele>
        <time>2009-05-29T10:38:58Z</time>
      </trkpt>
      <trkpt lat="43.60563" lon="7.02961">
        <ele>185</ele>
        <time>2009-05-29T10:38:59Z</time>
      </trkpt>
      <trkpt lat="43.60554" lon="7.0296">
        <ele>186</ele>
        <time>2009-05-29T10:39:01Z</time>
      </trkpt>
      <trkpt lat="43.6055" lon="7.02949">
        <ele>186</ele>
        <time>2009-05-29T10:39:02Z</time>
      </trkpt>
      <trkpt lat="43.60552" lon="7.02928">
        <ele>189</ele>
        <time>2009-05-29T10:39:03Z</time>
      </trkpt>
      <trkpt lat="43.60544" lon="7.02915">
        <ele>190</ele>
        <time>2009-05-29T10:39:05Z</time>
      </trkpt>
      <trkpt lat="43.60538" lon="7.02906">
        <ele>191</ele>
        <time>2009-05-29T10:39:10Z</time>
      </trkpt>
      <trkpt lat="43.60539" lon="7.02896">
        <ele>191</ele>
        <time>2009-05-29T10:39:14Z</time>
      </trkpt>
      <trkpt lat="43.60533" lon="7.02894">
        <ele>190</ele>
        <time>2009-05-29T10:39:20Z</time>
      </trkpt>
      <trkpt lat="43.60519" lon="7.02892">
        <ele>184</ele>
        <time>2009-05-29T10:39:21Z</time>
      </trkpt>
      <trkpt lat="43.60517" lon="7.02898">
        <ele>184</ele>
        <time>2009-05-29T10:39:29Z</time>
      </trkpt>
      <trkpt lat="43.60509" lon="7.029">
        <ele>181</ele>
        <time>2009-05-29T10:39:31Z</time>
      </trkpt>
      <trkpt lat="43.60503" lon="7.02903">
        <ele>180</ele>
        <time>2009-05-29T10:39:32Z</time>
      </trkpt>
      <trkpt lat="43.60495" lon="7.02904">
        <ele>177</ele>
        <time>2009-05-29T10:39:33Z</time>
      </trkpt>
      <trkpt lat="43.60489" lon="7.02906">
        <ele>176</ele>
        <time>2009-05-29T10:39:34Z</time>
      </trkpt>
      <trkpt lat="43.60483" lon="7.02907">
        <ele>174</ele>
        <time>2009-05-29T10:39:35Z</time>
      </trkpt>
      <trkpt lat="43.60486" lon="7.029">
        <ele>175</ele>
        <time>2009-05-29T10:39:39Z</time>
      </trkpt>
      <trkpt lat="43.60486" lon="7.029">
        <ele>175</ele>
        <time>2009-05-29T10:39:39Z</time>
      </trkpt>
      <trkpt lat="43.60485" lon="7.02896">
        <ele>176</ele>
        <time>2009-05-29T10:39:56Z</time>
      </trkpt>
      <trkpt lat="43.60489" lon="7.02887">
        <ele>177</ele>
        <time>2009-05-29T10:39:57Z</time>
      </trkpt>
      <trkpt lat="43.60484" lon="7.02885">
        <ele>181</ele>
        <time>2009-05-29T10:40:00Z</time>
      </trkpt>
      <trkpt lat="43.60483" lon="7.02883">
        <ele>182</ele>
        <time>2009-05-29T10:40:10Z</time>
      </trkpt>
      <trkpt lat="43.60482" lon="7.02878">
        <ele>186</ele>
        <time>2009-05-29T10:40:16Z</time>
      </trkpt>
      <trkpt lat="43.60482" lon="7.02874">
        <ele>186</ele>
        <time>2009-05-29T10:40:17Z</time>
      </trkpt>
      <trkpt lat="43.60485" lon="7.02868">
        <ele>188</ele>
        <time>2009-05-29T10:40:28Z</time>
      </trkpt>
      <trkpt lat="43.60485" lon="7.02859">
        <ele>192</ele>
        <time>2009-05-29T10:40:34Z</time>
      </trkpt>
      <trkpt lat="43.60481" lon="7.02853">
        <ele>199</ele>
        <time>2009-05-29T10:40:36Z</time>
      </trkpt>
      <trkpt lat="43.60476" lon="7.02846">
        <ele>204</ele>
        <time>2009-05-29T10:40:48Z</time>
      </trkpt>
      <trkpt lat="43.60364" lon="7.0282">
        <ele>192</ele>
        <time>2009-05-29T10:40:52Z</time>
      </trkpt>
      <trkpt lat="43.60351" lon="7.02821">
        <ele>193</ele>
        <time>2009-05-29T10:40:53Z</time>
      </trkpt>
      <trkpt lat="43.60345" lon="7.02819">
        <ele>195</ele>
        <time>2009-05-29T10:40:54Z</time>
      </trkpt>
      <trkpt lat="43.60338" lon="7.02819">
        <ele>195</ele>
        <time>2009-05-29T10:40:55Z</time>
      </trkpt>
      <trkpt lat="43.60331" lon="7.02822">
        <ele>195</ele>
        <time>2009-05-29T10:40:58Z</time>
      </trkpt>
      <trkpt lat="43.60321" lon="7.02824">
        <ele>194</ele>
        <time>2009-05-29T10:40:59Z</time>
      </trkpt>
      <trkpt lat="43.60314" lon="7.02827">
        <ele>194</ele>
        <time>2009-05-29T10:41:01Z</time>
      </trkpt>
      <trkpt lat="43.60293" lon="7.02836">
        <ele>195</ele>
        <time>2009-05-29T10:41:10Z</time>
      </trkpt>
      <trkpt lat="43.60288" lon="7.02836">
        <ele>194</ele>
        <time>2009-05-29T10:41:11Z</time>
      </trkpt>
      <trkpt lat="43.60282" lon="7.02839">
        <ele>195</ele>
        <time>2009-05-29T10:41:13Z</time>
      </trkpt>
      <trkpt lat="43.60277" lon="7.02841">
        <ele>195</ele>
        <time>2009-05-29T10:41:16Z</time>
      </trkpt>
      <trkpt lat="43.60265" lon="7.02846">
        <ele>191</ele>
        <time>2009-05-29T10:41:17Z</time>
      </trkpt>
      <trkpt lat="43.60258" lon="7.02849">
        <ele>191</ele>
        <time>2009-05-29T10:41:20Z</time>
      </trkpt>
      <trkpt lat="43.60251" lon="7.02851">
        <ele>191</ele>
        <time>2009-05-29T10:41:23Z</time>
      </trkpt>
      <trkpt lat="43.60251" lon="7.02851">
        <ele>191</ele>
        <time>2009-05-29T10:41:23Z</time>
      </trkpt>
      <trkpt lat="43.60248" lon="7.02852">
        <ele>191</ele>
        <time>2009-05-29T10:41:25Z</time>
      </trkpt>
      <trkpt lat="43.60246" lon="7.02854">
        <ele>191</ele>
        <time>2009-05-29T10:41:26Z</time>
      </trkpt>
      <trkpt lat="43.60234" lon="7.02858">
        <ele>189</ele>
        <time>2009-05-29T10:41:28Z</time>
      </trkpt>
      <trkpt lat="43.60212" lon="7.02865">
        <ele>191</ele>
        <time>2009-05-29T10:41:36Z</time>
      </trkpt>
      <trkpt lat="43.60205" lon="7.02868">
        <ele>192</ele>
        <time>2009-05-29T10:41:38Z</time>
      </trkpt>
      <trkpt lat="43.60197" lon="7.0287">
        <ele>194</ele>
        <time>2009-05-29T10:41:40Z</time>
      </trkpt>
      <trkpt lat="43.60188" lon="7.02877">
        <ele>192</ele>
        <time>2009-05-29T10:41:43Z</time>
      </trkpt>
      <trkpt lat="43.60181" lon="7.02883">
        <ele>192</ele>
        <time>2009-05-29T10:41:45Z</time>
      </trkpt>
      <trkpt lat="43.60168" lon="7.02893">
        <ele>192</ele>
        <time>2009-05-29T10:41:49Z</time>
      </trkpt>
      <trkpt lat="43.60163" lon="7.02894">
        <ele>191</ele>
        <time>2009-05-29T10:41:50Z</time>
      </trkpt>
      <trkpt lat="43.60147" lon="7.02914">
        <ele>190</ele>
        <time>2009-05-29T10:41:59Z</time>
      </trkpt>
      <trkpt lat="43.60144" lon="7.0292">
        <ele>190</ele>
        <time>2009-05-29T10:42:01Z</time>
      </trkpt>
      <trkpt lat="43.60122" lon="7.02938">
        <ele>190</ele>
        <time>2009-05-29T10:42:09Z</time>
      </trkpt>
      <trkpt lat="43.60119" lon="7.02942">
        <ele>190</ele>
        <time>2009-05-29T10:42:12Z</time>
      </trkpt>
      <trkpt lat="43.6012" lon="7.02953">
        <ele>189</ele>
        <time>2009-05-29T10:42:31Z</time>
      </trkpt>
      <trkpt lat="43.60115" lon="7.02959">
        <ele>189</ele>
        <time>2009-05-29T10:42:35Z</time>
      </trkpt>
      <trkpt lat="43.6011" lon="7.02965">
        <ele>189</ele>
        <time>2009-05-29T10:42:38Z</time>
      </trkpt>
      <trkpt lat="43.60106" lon="7.02968">
        <ele>189</ele>
        <time>2009-05-29T10:42:39Z</time>
      </trkpt>
      <trkpt lat="43.60103" lon="7.02973">
        <ele>189</ele>
        <time>2009-05-29T10:42:40Z</time>
      </trkpt>
      <trkpt lat="43.60099" lon="7.02981">
        <ele>189</ele>
        <time>2009-05-29T10:42:44Z</time>
      </trkpt>
      <trkpt lat="43.60095" lon="7.02988">
        <ele>189</ele>
        <time>2009-05-29T10:42:46Z</time>
      </trkpt>
      <trkpt lat="43.60093" lon="7.03009">
        <ele>189</ele>
        <time>2009-05-29T10:42:55Z</time>
      </trkpt>
      <trkpt lat="43.60092" lon="7.03016">
        <ele>190</ele>
        <time>2009-05-29T10:42:57Z</time>
      </trkpt>
      <trkpt lat="43.60093" lon="7.03027">
        <ele>190</ele>
        <time>2009-05-29T10:42:59Z</time>
      </trkpt>
      <trkpt lat="43.60092" lon="7.03036">
        <ele>190</ele>
        <time>2009-05-29T10:43:02Z</time>
      </trkpt>
      <trkpt lat="43.60087" lon="7.03043">
        <ele>191</ele>
        <time>2009-05-29T10:43:04Z</time>
      </trkpt>
      <trkpt lat="43.6009" lon="7.03066">
        <ele>191</ele>
        <time>2009-05-29T10:43:10Z</time>
      </trkpt>
      <trkpt lat="43.60095" lon="7.0308">
        <ele>191</ele>
        <time>2009-05-29T10:43:14Z</time>
      </trkpt>
      <trkpt lat="43.60092" lon="7.03086">
        <ele>191</ele>
        <time>2009-05-29T10:43:15Z</time>
      </trkpt>
      <trkpt lat="43.60092" lon="7.03094">
        <ele>192</ele>
        <time>2009-05-29T10:43:17Z</time>
      </trkpt>
      <trkpt lat="43.60094" lon="7.031">
        <ele>192</ele>
        <time>2009-05-29T10:43:19Z</time>
      </trkpt>
      <trkpt lat="43.60096" lon="7.03107">
        <ele>192</ele>
        <time>2009-05-29T10:43:21Z</time>
      </trkpt>
      <trkpt lat="43.60096" lon="7.03115">
        <ele>192</ele>
        <time>2009-05-29T10:43:23Z</time>
      </trkpt>
      <trkpt lat="43.60098" lon="7.03126">
        <ele>192</ele>
        <time>2009-05-29T10:43:26Z</time>
      </trkpt>
      <trkpt lat="43.60098" lon="7.03136">
        <ele>193</ele>
        <time>2009-05-29T10:43:28Z</time>
      </trkpt>
      <trkpt lat="43.60099" lon="7.03145">
        <ele>194</ele>
        <time>2009-05-29T10:43:30Z</time>
      </trkpt>
      <trkpt lat="43.60103" lon="7.03151">
        <ele>194</ele>
        <time>2009-05-29T10:43:32Z</time>
      </trkpt>
      <trkpt lat="43.60105" lon="7.03159">
        <ele>194</ele>
        <time>2009-05-29T10:43:34Z</time>
      </trkpt>
      <trkpt lat="43.60108" lon="7.03168">
        <ele>194</ele>
        <time>2009-05-29T10:43:36Z</time>
      </trkpt>
      <trkpt lat="43.60115" lon="7.03215">
        <ele>195</ele>
        <time>2009-05-29T10:43:45Z</time>
      </trkpt>
      <trkpt lat="43.60123" lon="7.03224">
        <ele>195</ele>
        <time>2009-05-29T10:43:46Z</time>
      </trkpt>
      <trkpt lat="43.60128" lon="7.0323">
        <ele>196</ele>
        <time>2009-05-29T10:43:47Z</time>
      </trkpt>
      <trkpt lat="43.60132" lon="7.03235">
        <ele>196</ele>
        <time>2009-05-29T10:43:48Z</time>
      </trkpt>
      <trkpt lat="43.60135" lon="7.0324">
        <ele>196</ele>
        <time>2009-05-29T10:43:49Z</time>
      </trkpt>
      <trkpt lat="43.60142" lon="7.03256">
        <ele>196</ele>
        <time>2009-05-29T10:43:52Z</time>
      </trkpt>
      <trkpt lat="43.60138" lon="7.03265">
        <ele>196</ele>
        <time>2009-05-29T10:43:54Z</time>
      </trkpt>
      <trkpt lat="43.60144" lon="7.03284">
        <ele>196</ele>
        <time>2009-05-29T10:43:58Z</time>
      </trkpt>
      <trkpt lat="43.60143" lon="7.03293">
        <ele>196</ele>
        <time>2009-05-29T10:44:00Z</time>
      </trkpt>
      <trkpt lat="43.60155" lon="7.03335">
        <ele>196</ele>
        <time>2009-05-29T10:44:10Z</time>
      </trkpt>
      <trkpt lat="43.60157" lon="7.03343">
        <ele>196</ele>
        <time>2009-05-29T10:44:12Z</time>
      </trkpt>
      <trkpt lat="43.6016" lon="7.03359">
        <ele>196</ele>
        <time>2009-05-29T10:44:16Z</time>
      </trkpt>
      <trkpt lat="43.6016" lon="7.03369">
        <ele>197</ele>
        <time>2009-05-29T10:44:19Z</time>
      </trkpt>
      <trkpt lat="43.60162" lon="7.0338">
        <ele>196</ele>
        <time>2009-05-29T10:44:22Z</time>
      </trkpt>
      <trkpt lat="43.60165" lon="7.03387">
        <ele>197</ele>
        <time>2009-05-29T10:44:24Z</time>
      </trkpt>
      <trkpt lat="43.60173" lon="7.03423">
        <ele>197</ele>
        <time>2009-05-29T10:44:34Z</time>
      </trkpt>
      <trkpt lat="43.60179" lon="7.03431">
        <ele>197</ele>
        <time>2009-05-29T10:44:36Z</time>
      </trkpt>
      <trkpt lat="43.60183" lon="7.03438">
        <ele>197</ele>
        <time>2009-05-29T10:44:38Z</time>
      </trkpt>
      <trkpt lat="43.60189" lon="7.03453">
        <ele>197</ele>
        <time>2009-05-29T10:44:42Z</time>
      </trkpt>
      <trkpt lat="43.60188" lon="7.03459">
        <ele>198</ele>
        <time>2009-05-29T10:44:43Z</time>
      </trkpt>
      <trkpt lat="43.6019" lon="7.03469">
        <ele>198</ele>
        <time>2009-05-29T10:44:46Z</time>
      </trkpt>
      <trkpt lat="43.60198" lon="7.03476">
        <ele>199</ele>
        <time>2009-05-29T10:44:55Z</time>
      </trkpt>
      <trkpt lat="43.60205" lon="7.03467">
        <ele>200</ele>
        <time>2009-05-29T10:45:02Z</time>
      </trkpt>
      <trkpt lat="43.60221" lon="7.03475">
        <ele>203</ele>
        <time>2009-05-29T10:45:09Z</time>
      </trkpt>
      <trkpt lat="43.60222" lon="7.03481">
        <ele>205</ele>
        <time>2009-05-29T10:45:13Z</time>
      </trkpt>
      <trkpt lat="43.60228" lon="7.03484">
        <ele>205</ele>
        <time>2009-05-29T10:45:18Z</time>
      </trkpt>
      <trkpt lat="43.6023" lon="7.03503">
        <ele>209</ele>
        <time>2009-05-29T10:45:29Z</time>
      </trkpt>
      <trkpt lat="43.60229" lon="7.03511">
        <ele>209</ele>
        <time>2009-05-29T10:45:33Z</time>
      </trkpt>
      <trkpt lat="43.60231" lon="7.03519">
        <ele>209</ele>
        <time>2009-05-29T10:45:37Z</time>
      </trkpt>
      <trkpt lat="43.60233" lon="7.03525">
        <ele>210</ele>
        <time>2009-05-29T10:45:39Z</time>
      </trkpt>
      <trkpt lat="43.60235" lon="7.03532">
        <ele>211</ele>
        <time>2009-05-29T10:45:42Z</time>
      </trkpt>
      <trkpt lat="43.60245" lon="7.03539">
        <ele>212</ele>
        <time>2009-05-29T10:45:52Z</time>
      </trkpt>
      <trkpt lat="43.60248" lon="7.03545">
        <ele>212</ele>
        <time>2009-05-29T10:45:54Z</time>
      </trkpt>
      <trkpt lat="43.60252" lon="7.03556">
        <ele>212</ele>
        <time>2009-05-29T10:45:58Z</time>
      </trkpt>
      <trkpt lat="43.6025" lon="7.03566">
        <ele>214</ele>
        <time>2009-05-29T10:46:02Z</time>
      </trkpt>
      <trkpt lat="43.60257" lon="7.03571">
        <ele>215</ele>
        <time>2009-05-29T10:46:04Z</time>
      </trkpt>
      <trkpt lat="43.60263" lon="7.03586">
        <ele>215</ele>
        <time>2009-05-29T10:46:09Z</time>
      </trkpt>
      <trkpt lat="43.60269" lon="7.0359">
        <ele>215</ele>
        <time>2009-05-29T10:46:11Z</time>
      </trkpt>
      <trkpt lat="43.6027" lon="7.03599">
        <ele>216</ele>
        <time>2009-05-29T10:46:15Z</time>
      </trkpt>
      <trkpt lat="43.60275" lon="7.036">
        <ele>216</ele>
        <time>2009-05-29T10:46:17Z</time>
      </trkpt>
      <trkpt lat="43.60285" lon="7.03618">
        <ele>218</ele>
        <time>2009-05-29T10:46:26Z</time>
      </trkpt>
      <trkpt lat="43.60284" lon="7.03629">
        <ele>218</ele>
        <time>2009-05-29T10:46:27Z</time>
      </trkpt>
      <trkpt lat="43.60285" lon="7.03636">
        <ele>219</ele>
        <time>2009-05-29T10:46:29Z</time>
      </trkpt>
      <trkpt lat="43.60281" lon="7.03646">
        <ele>220</ele>
        <time>2009-05-29T10:46:31Z</time>
      </trkpt>
      <trkpt lat="43.60278" lon="7.03652">
        <ele>221</ele>
        <time>2009-05-29T10:46:32Z</time>
      </trkpt>
      <trkpt lat="43.60277" lon="7.03659">
        <ele>220</ele>
        <time>2009-05-29T10:46:33Z</time>
      </trkpt>
      <trkpt lat="43.60275" lon="7.03669">
        <ele>221</ele>
        <time>2009-05-29T10:46:35Z</time>
      </trkpt>
      <trkpt lat="43.60273" lon="7.03676">
        <ele>221</ele>
        <time>2009-05-29T10:46:36Z</time>
      </trkpt>
      <trkpt lat="43.60281" lon="7.03682">
        <ele>220</ele>
        <time>2009-05-29T10:46:38Z</time>
      </trkpt>
      <trkpt lat="43.60283" lon="7.03688">
        <ele>221</ele>
        <time>2009-05-29T10:46:40Z</time>
      </trkpt>
      <trkpt lat="43.60298" lon="7.03712">
        <ele>220</ele>
        <time>2009-05-29T10:46:48Z</time>
      </trkpt>
      <trkpt lat="43.60313" lon="7.03712">
        <ele>220</ele>
        <time>2009-05-29T10:46:49Z</time>
      </trkpt>
      <trkpt lat="43.60319" lon="7.03717">
        <ele>220</ele>
        <time>2009-05-29T10:46:52Z</time>
      </trkpt>
      <trkpt lat="43.60327" lon="7.03724">
        <ele>219</ele>
        <time>2009-05-29T10:46:54Z</time>
      </trkpt>
      <trkpt lat="43.60331" lon="7.03728">
        <ele>219</ele>
        <time>2009-05-29T10:46:56Z</time>
      </trkpt>
      <trkpt lat="43.60338" lon="7.0373">
        <ele>219</ele>
        <time>2009-05-29T10:46:59Z</time>
      </trkpt>
      <trkpt lat="43.60346" lon="7.03731">
        <ele>218</ele>
        <time>2009-05-29T10:47:02Z</time>
      </trkpt>
      <trkpt lat="43.60354" lon="7.03731">
        <ele>218</ele>
        <time>2009-05-29T10:47:03Z</time>
      </trkpt>
      <trkpt lat="43.6036" lon="7.03729">
        <ele>218</ele>
        <time>2009-05-29T10:47:05Z</time>
      </trkpt>
      <trkpt lat="43.60375" lon="7.03725">
        <ele>219</ele>
        <time>2009-05-29T10:47:10Z</time>
      </trkpt>
      <trkpt lat="43.60381" lon="7.03721">
        <ele>218</ele>
        <time>2009-05-29T10:47:11Z</time>
      </trkpt>
      <trkpt lat="43.60395" lon="7.03711">
        <ele>219</ele>
        <time>2009-05-29T10:47:13Z</time>
      </trkpt>
      <trkpt lat="43.60401" lon="7.03709">
        <ele>218</ele>
        <time>2009-05-29T10:47:14Z</time>
      </trkpt>
      <trkpt lat="43.60431" lon="7.03696">
        <ele>225</ele>
        <time>2009-05-29T10:47:15Z</time>
      </trkpt>
      <trkpt lat="43.60443" lon="7.03691">
        <ele>227</ele>
        <time>2009-05-29T10:47:16Z</time>
      </trkpt>
      <trkpt lat="43.60447" lon="7.03696">
        <ele>227</ele>
        <time>2009-05-29T10:47:18Z</time>
      </trkpt>
      <trkpt lat="43.60475" lon="7.03699">
        <ele>228</ele>
        <time>2009-05-29T10:47:26Z</time>
      </trkpt>
      <trkpt lat="43.60467" lon="7.03702">
        <ele>230</ele>
        <time>2009-05-29T10:47:27Z</time>
      </trkpt>
      <trkpt lat="43.60462" lon="7.03705">
        <ele>232</ele>
        <time>2009-05-29T10:47:29Z</time>
      </trkpt>
      <trkpt lat="43.60457" lon="7.03709">
        <ele>234</ele>
        <time>2009-05-29T10:47:31Z</time>
      </trkpt>
      <trkpt lat="43.60449" lon="7.03715">
        <ele>235</ele>
        <time>2009-05-29T10:47:32Z</time>
      </trkpt>
      <trkpt lat="43.60444" lon="7.03719">
        <ele>236</ele>
        <time>2009-05-29T10:47:34Z</time>
      </trkpt>
      <trkpt lat="43.60444" lon="7.03719">
        <ele>236</ele>
        <time>2009-05-29T10:47:34Z</time>
      </trkpt>
      <trkpt lat="43.60444" lon="7.03719">
        <ele>237</ele>
        <time>2009-05-29T10:47:35Z</time>
      </trkpt>
      <trkpt lat="43.60437" lon="7.03723">
        <ele>237</ele>
        <time>2009-05-29T10:47:36Z</time>
      </trkpt>
      <trkpt lat="43.6043" lon="7.03724">
        <ele>238</ele>
        <time>2009-05-29T10:47:38Z</time>
      </trkpt>
      <trkpt lat="43.60427" lon="7.03719">
        <ele>238</ele>
        <time>2009-05-29T10:47:47Z</time>
      </trkpt>
      <trkpt lat="43.60408" lon="7.03731">
        <ele>239</ele>
        <time>2009-05-29T10:47:49Z</time>
      </trkpt>
      <trkpt lat="43.60403" lon="7.03736">
        <ele>239</ele>
        <time>2009-05-29T10:47:51Z</time>
      </trkpt>
      <trkpt lat="43.60408" lon="7.03739">
        <ele>240</ele>
        <time>2009-05-29T10:47:56Z</time>
      </trkpt>
      <trkpt lat="43.60408" lon="7.03742">
        <ele>241</ele>
        <time>2009-05-29T10:47:59Z</time>
      </trkpt>
      <trkpt lat="43.60408" lon="7.03745">
        <ele>241</ele>
        <time>2009-05-29T10:48:01Z</time>
      </trkpt>
      <trkpt lat="43.60401" lon="7.03794">
        <ele>241</ele>
        <time>2009-05-29T10:48:02Z</time>
      </trkpt>
      <trkpt lat="43.60386" lon="7.03814">
        <ele>241</ele>
        <time>2009-05-29T10:48:04Z</time>
      </trkpt>
      <trkpt lat="43.60365" lon="7.0385">
        <ele>241</ele>
        <time>2009-05-29T10:48:10Z</time>
      </trkpt>
      <trkpt lat="43.60342" lon="7.03866">
        <ele>241</ele>
        <time>2009-05-29T10:48:12Z</time>
      </trkpt>
      <trkpt lat="43.60327" lon="7.03876">
        <ele>241</ele>
        <time>2009-05-29T10:48:13Z</time>
      </trkpt>
      <trkpt lat="43.60318" lon="7.03882">
        <ele>241</ele>
        <time>2009-05-29T10:48:14Z</time>
      </trkpt>
      <trkpt lat="43.60314" lon="7.03889">
        <ele>241</ele>
        <time>2009-05-29T10:48:16Z</time>
      </trkpt>
      <trkpt lat="43.60307" lon="7.03897">
        <ele>241</ele>
        <time>2009-05-29T10:48:17Z</time>
      </trkpt>
      <trkpt lat="43.60305" lon="7.03907">
        <ele>241</ele>
        <time>2009-05-29T10:48:19Z</time>
      </trkpt>
      <trkpt lat="43.60293" lon="7.03916">
        <ele>240</ele>
        <time>2009-05-29T10:48:20Z</time>
      </trkpt>
      <trkpt lat="43.60286" lon="7.03922">
        <ele>240</ele>
        <time>2009-05-29T10:48:22Z</time>
      </trkpt>
      <trkpt lat="43.60272" lon="7.0393">
        <ele>240</ele>
        <time>2009-05-29T10:48:23Z</time>
      </trkpt>
      <trkpt lat="43.60268" lon="7.03934">
        <ele>240</ele>
        <time>2009-05-29T10:48:24Z</time>
      </trkpt>
      <trkpt lat="43.60264" lon="7.03938">
        <ele>240</ele>
        <time>2009-05-29T10:48:25Z</time>
      </trkpt>
      <trkpt lat="43.6026" lon="7.03941">
        <ele>240</ele>
        <time>2009-05-29T10:48:26Z</time>
      </trkpt>
      <trkpt lat="43.60257" lon="7.03947">
        <ele>240</ele>
        <time>2009-05-29T10:48:27Z</time>
      </trkpt>
      <trkpt lat="43.60253" lon="7.03952">
        <ele>240</ele>
        <time>2009-05-29T10:48:28Z</time>
      </trkpt>
      <trkpt lat="43.6025" lon="7.03957">
        <ele>240</ele>
        <time>2009-05-29T10:48:29Z</time>
      </trkpt>
      <trkpt lat="43.60248" lon="7.03964">
        <ele>240</ele>
        <time>2009-05-29T10:48:30Z</time>
      </trkpt>
      <trkpt lat="43.60234" lon="7.03975">
        <ele>239</ele>
        <time>2009-05-29T10:48:31Z</time>
      </trkpt>
      <trkpt lat="43.60204" lon="7.04029">
        <ele>239</ele>
        <time>2009-05-29T10:48:39Z</time>
      </trkpt>
      <trkpt lat="43.60199" lon="7.04039">
        <ele>239</ele>
        <time>2009-05-29T10:48:41Z</time>
      </trkpt>
      <trkpt lat="43.60196" lon="7.04046">
        <ele>239</ele>
        <time>2009-05-29T10:48:42Z</time>
      </trkpt>
      <trkpt lat="43.60193" lon="7.04055">
        <ele>239</ele>
        <time>2009-05-29T10:48:43Z</time>
      </trkpt>
      <trkpt lat="43.60189" lon="7.04062">
        <ele>239</ele>
        <time>2009-05-29T10:48:44Z</time>
      </trkpt>
      <trkpt lat="43.60186" lon="7.04069">
        <ele>239</ele>
        <time>2009-05-29T10:48:45Z</time>
      </trkpt>
      <trkpt lat="43.60181" lon="7.04077">
        <ele>239</ele>
        <time>2009-05-29T10:48:46Z</time>
      </trkpt>
      <trkpt lat="43.60178" lon="7.04084">
        <ele>239</ele>
        <time>2009-05-29T10:48:47Z</time>
      </trkpt>
      <trkpt lat="43.60174" lon="7.04091">
        <ele>239</ele>
        <time>2009-05-29T10:48:48Z</time>
      </trkpt>
      <trkpt lat="43.6017" lon="7.04096">
        <ele>239</ele>
        <time>2009-05-29T10:48:49Z</time>
      </trkpt>
      <trkpt lat="43.60166" lon="7.04102">
        <ele>239</ele>
        <time>2009-05-29T10:48:50Z</time>
      </trkpt>
      <trkpt lat="43.60162" lon="7.04108">
        <ele>239</ele>
        <time>2009-05-29T10:48:51Z</time>
      </trkpt>
      <trkpt lat="43.60158" lon="7.04114">
        <ele>239</ele>
        <time>2009-05-29T10:48:52Z</time>
      </trkpt>
      <trkpt lat="43.6019" lon="7.04145">
        <ele>240</ele>
        <time>2009-05-29T10:49:14Z</time>
      </trkpt>
      <trkpt lat="43.60199" lon="7.04144">
        <ele>240</ele>
        <time>2009-05-29T10:49:15Z</time>
      </trkpt>
      <trkpt lat="43.60196" lon="7.04151">
        <ele>240</ele>
        <time>2009-05-29T10:49:17Z</time>
      </trkpt>
      <trkpt lat="43.60189" lon="7.04165">
        <ele>241</ele>
        <time>2009-05-29T10:49:25Z</time>
      </trkpt>
      <trkpt lat="43.60215" lon="7.0415">
        <ele>241</ele>
        <time>2009-05-29T10:49:26Z</time>
      </trkpt>
      <trkpt lat="43.60217" lon="7.04164">
        <ele>241</ele>
        <time>2009-05-29T10:49:28Z</time>
      </trkpt>
      <trkpt lat="43.60272" lon="7.04142">
        <ele>247</ele>
        <time>2009-05-29T10:49:29Z</time>
      </trkpt>
      <trkpt lat="43.60272" lon="7.04151">
        <ele>248</ele>
        <time>2009-05-29T10:49:32Z</time>
      </trkpt>
      <trkpt lat="43.60276" lon="7.04158">
        <ele>247</ele>
        <time>2009-05-29T10:49:34Z</time>
      </trkpt>
      <trkpt lat="43.60278" lon="7.04164">
        <ele>247</ele>
        <time>2009-05-29T10:49:36Z</time>
      </trkpt>
      <trkpt lat="43.60279" lon="7.04171">
        <ele>247</ele>
        <time>2009-05-29T10:49:38Z</time>
      </trkpt>
      <trkpt lat="43.60281" lon="7.0418">
        <ele>247</ele>
        <time>2009-05-29T10:49:41Z</time>
      </trkpt>
      <trkpt lat="43.60283" lon="7.04187">
        <ele>247</ele>
        <time>2009-05-29T10:49:43Z</time>
      </trkpt>
      <trkpt lat="43.60292" lon="7.04188">
        <ele>246</ele>
        <time>2009-05-29T10:49:45Z</time>
      </trkpt>
      <trkpt lat="43.60295" lon="7.04196">
        <ele>246</ele>
        <time>2009-05-29T10:49:48Z</time>
      </trkpt>
      <trkpt lat="43.60308" lon="7.04214">
        <ele>246</ele>
        <time>2009-05-29T10:49:57Z</time>
      </trkpt>
      <trkpt lat="43.60312" lon="7.04218">
        <ele>246</ele>
        <time>2009-05-29T10:49:59Z</time>
      </trkpt>
      <trkpt lat="43.60314" lon="7.04225">
        <ele>246</ele>
        <time>2009-05-29T10:50:04Z</time>
      </trkpt>
      <trkpt lat="43.60322" lon="7.04239">
        <ele>246</ele>
        <time>2009-05-29T10:50:10Z</time>
      </trkpt>
      <trkpt lat="43.6033" lon="7.0424">
        <ele>246</ele>
        <time>2009-05-29T10:50:11Z</time>
      </trkpt>
      <trkpt lat="43.60335" lon="7.04241">
        <ele>246</ele>
        <time>2009-05-29T10:50:13Z</time>
      </trkpt>
      <trkpt lat="43.60329" lon="7.04248">
        <ele>245</ele>
        <time>2009-05-29T10:50:15Z</time>
      </trkpt>
      <trkpt lat="43.60331" lon="7.04255">
        <ele>245</ele>
        <time>2009-05-29T10:50:19Z</time>
      </trkpt>
      <trkpt lat="43.60334" lon="7.04275">
        <ele>245</ele>
        <time>2009-05-29T10:50:28Z</time>
      </trkpt>
      <trkpt lat="43.6034" lon="7.04279">
        <ele>245</ele>
        <time>2009-05-29T10:50:29Z</time>
      </trkpt>
      <trkpt lat="43.60344" lon="7.04282">
        <ele>245</ele>
        <time>2009-05-29T10:50:30Z</time>
      </trkpt>
      <trkpt lat="43.60357" lon="7.04286">
        <ele>245</ele>
        <time>2009-05-29T10:50:31Z</time>
      </trkpt>
      <trkpt lat="43.60371" lon="7.04289">
        <ele>244</ele>
        <time>2009-05-29T10:50:32Z</time>
      </trkpt>
      <trkpt lat="43.60374" lon="7.04297">
        <ele>244</ele>
        <time>2009-05-29T10:50:34Z</time>
      </trkpt>
      <trkpt lat="43.60381" lon="7.043">
        <ele>244</ele>
        <time>2009-05-29T10:50:35Z</time>
      </trkpt>
      <trkpt lat="43.60385" lon="7.04302">
        <ele>244</ele>
        <time>2009-05-29T10:50:36Z</time>
      </trkpt>
      <trkpt lat="43.60394" lon="7.04306">
        <ele>244</ele>
        <time>2009-05-29T10:50:37Z</time>
      </trkpt>
      <trkpt lat="43.60396" lon="7.04315">
        <ele>244</ele>
        <time>2009-05-29T10:50:39Z</time>
      </trkpt>
      <trkpt lat="43.60397" lon="7.04323">
        <ele>244</ele>
        <time>2009-05-29T10:50:41Z</time>
      </trkpt>
      <trkpt lat="43.60404" lon="7.0433">
        <ele>244</ele>
        <time>2009-05-29T10:50:43Z</time>
      </trkpt>
      <trkpt lat="43.60403" lon="7.04339">
        <ele>244</ele>
        <time>2009-05-29T10:50:45Z</time>
      </trkpt>
      <trkpt lat="43.604" lon="7.04348">
        <ele>244</ele>
        <time>2009-05-29T10:50:47Z</time>
      </trkpt>
      <trkpt lat="43.60406" lon="7.04352">
        <ele>244</ele>
        <time>2009-05-29T10:50:49Z</time>
      </trkpt>
      <trkpt lat="43.6041" lon="7.04357">
        <ele>244</ele>
        <time>2009-05-29T10:50:51Z</time>
      </trkpt>
      <trkpt lat="43.60423" lon="7.04377">
        <ele>245</ele>
        <time>2009-05-29T10:51:00Z</time>
      </trkpt>
      <trkpt lat="43.60433" lon="7.04378">
        <ele>247</ele>
        <time>2009-05-29T10:51:01Z</time>
      </trkpt>
      <trkpt lat="43.60431" lon="7.04384">
        <ele>247</ele>
        <time>2009-05-29T10:51:02Z</time>
      </trkpt>
      <trkpt lat="43.60431" lon="7.04391">
        <ele>247</ele>
        <time>2009-05-29T10:51:04Z</time>
      </trkpt>
      <trkpt lat="43.60436" lon="7.04394">
        <ele>247</ele>
        <time>2009-05-29T10:51:05Z</time>
      </trkpt>
      <trkpt lat="43.60456" lon="7.04409">
        <ele>246</ele>
        <time>2009-05-29T10:51:11Z</time>
      </trkpt>
      <trkpt lat="43.60456" lon="7.04416">
        <ele>246</ele>
        <time>2009-05-29T10:51:13Z</time>
      </trkpt>
      <trkpt lat="43.60456" lon="7.04424">
        <ele>246</ele>
        <time>2009-05-29T10:51:16Z</time>
      </trkpt>
      <trkpt lat="43.60456" lon="7.04432">
        <ele>246</ele>
        <time>2009-05-29T10:51:19Z</time>
      </trkpt>
      <trkpt lat="43.60459" lon="7.04437">
        <ele>246</ele>
        <time>2009-05-29T10:51:21Z</time>
      </trkpt>
      <trkpt lat="43.60461" lon="7.04445">
        <ele>246</ele>
        <time>2009-05-29T10:51:23Z</time>
      </trkpt>
      <trkpt lat="43.60462" lon="7.04476">
        <ele>246</ele>
        <time>2009-05-29T10:51:31Z</time>
      </trkpt>
      <trkpt lat="43.60452" lon="7.04482">
        <ele>246</ele>
        <time>2009-05-29T10:51:32Z</time>
      </trkpt>
      <trkpt lat="43.60453" lon="7.04491">
        <ele>246</ele>
        <time>2009-05-29T10:51:34Z</time>
      </trkpt>
      <trkpt lat="43.60469" lon="7.04486">
        <ele>248</ele>
        <time>2009-05-29T10:51:35Z</time>
      </trkpt>
      <trkpt lat="43.6048" lon="7.04488">
        <ele>248</ele>
        <time>2009-05-29T10:51:37Z</time>
      </trkpt>
      <trkpt lat="43.60482" lon="7.04497">
        <ele>249</ele>
        <time>2009-05-29T10:51:39Z</time>
      </trkpt>
      <trkpt lat="43.60486" lon="7.04502">
        <ele>248</ele>
        <time>2009-05-29T10:51:40Z</time>
      </trkpt>
      <trkpt lat="43.60491" lon="7.04511">
        <ele>249</ele>
        <time>2009-05-29T10:51:42Z</time>
      </trkpt>
      <trkpt lat="43.60504" lon="7.04555">
        <ele>250</ele>
        <time>2009-05-29T10:51:51Z</time>
      </trkpt>
      <trkpt lat="43.60511" lon="7.04562">
        <ele>249</ele>
        <time>2009-05-29T10:51:52Z</time>
      </trkpt>
      <trkpt lat="43.60515" lon="7.0457">
        <ele>249</ele>
        <time>2009-05-29T10:51:53Z</time>
      </trkpt>
      <trkpt lat="43.60519" lon="7.04576">
        <ele>249</ele>
        <time>2009-05-29T10:51:54Z</time>
      </trkpt>
      <trkpt lat="43.60522" lon="7.04581">
        <ele>249</ele>
        <time>2009-05-29T10:51:55Z</time>
      </trkpt>
      <trkpt lat="43.60532" lon="7.04599">
        <ele>248</ele>
        <time>2009-05-29T10:51:58Z</time>
      </trkpt>
      <trkpt lat="43.60534" lon="7.04607">
        <ele>247</ele>
        <time>2009-05-29T10:51:59Z</time>
      </trkpt>
      <trkpt lat="43.60537" lon="7.04616">
        <ele>248</ele>
        <time>2009-05-29T10:52:01Z</time>
      </trkpt>
      <trkpt lat="43.60541" lon="7.04623">
        <ele>247</ele>
        <time>2009-05-29T10:52:02Z</time>
      </trkpt>
      <trkpt lat="43.60545" lon="7.04632">
        <ele>246</ele>
        <time>2009-05-29T10:52:04Z</time>
      </trkpt>
      <trkpt lat="43.60548" lon="7.04656">
        <ele>243</ele>
        <time>2009-05-29T10:52:09Z</time>
      </trkpt>
      <trkpt lat="43.6055" lon="7.04671">
        <ele>243</ele>
        <time>2009-05-29T10:52:12Z</time>
      </trkpt>
      <trkpt lat="43.6055" lon="7.04678">
        <ele>243</ele>
        <time>2009-05-29T10:52:13Z</time>
      </trkpt>
      <trkpt lat="43.60537" lon="7.04689">
        <ele>242</ele>
        <time>2009-05-29T10:52:14Z</time>
      </trkpt>
      <trkpt lat="43.60535" lon="7.04695">
        <ele>242</ele>
        <time>2009-05-29T10:52:15Z</time>
      </trkpt>
      <trkpt lat="43.60532" lon="7.04701">
        <ele>242</ele>
        <time>2009-05-29T10:52:16Z</time>
      </trkpt>
      <trkpt lat="43.60527" lon="7.04716">
        <ele>242</ele>
        <time>2009-05-29T10:52:19Z</time>
      </trkpt>
      <trkpt lat="43.60531" lon="7.04722">
        <ele>242</ele>
        <time>2009-05-29T10:52:23Z</time>
      </trkpt>
      <trkpt lat="43.60532" lon="7.04744">
        <ele>242</ele>
        <time>2009-05-29T10:52:31Z</time>
      </trkpt>
      <trkpt lat="43.60533" lon="7.04751">
        <ele>241</ele>
        <time>2009-05-29T10:52:33Z</time>
      </trkpt>
      <trkpt lat="43.60532" lon="7.04759">
        <ele>242</ele>
        <time>2009-05-29T10:52:35Z</time>
      </trkpt>
      <trkpt lat="43.60534" lon="7.0477">
        <ele>240</ele>
        <time>2009-05-29T10:52:38Z</time>
      </trkpt>
      <trkpt lat="43.6053" lon="7.04776">
        <ele>240</ele>
        <time>2009-05-29T10:52:39Z</time>
      </trkpt>
      <trkpt lat="43.60522" lon="7.04784">
        <ele>239</ele>
        <time>2009-05-29T10:52:41Z</time>
      </trkpt>
      <trkpt lat="43.60518" lon="7.0479">
        <ele>239</ele>
        <time>2009-05-29T10:52:42Z</time>
      </trkpt>
      <trkpt lat="43.60504" lon="7.04813">
        <ele>239</ele>
        <time>2009-05-29T10:52:50Z</time>
      </trkpt>
      <trkpt lat="43.605" lon="7.04823">
        <ele>239</ele>
        <time>2009-05-29T10:52:51Z</time>
      </trkpt>
      <trkpt lat="43.60498" lon="7.04829">
        <ele>239</ele>
        <time>2009-05-29T10:52:52Z</time>
      </trkpt>
      <trkpt lat="43.60494" lon="7.04841">
        <ele>239</ele>
        <time>2009-05-29T10:52:54Z</time>
      </trkpt>
      <trkpt lat="43.60491" lon="7.0485">
        <ele>238</ele>
        <time>2009-05-29T10:52:56Z</time>
      </trkpt>
      <trkpt lat="43.60486" lon="7.0486">
        <ele>238</ele>
        <time>2009-05-29T10:52:58Z</time>
      </trkpt>
      <trkpt lat="43.60457" lon="7.04898">
        <ele>237</ele>
        <time>2009-05-29T10:53:10Z</time>
      </trkpt>
      <trkpt lat="43.60453" lon="7.04901">
        <ele>237</ele>
        <time>2009-05-29T10:53:11Z</time>
      </trkpt>
      <trkpt lat="43.60445" lon="7.04906">
        <ele>236</ele>
        <time>2009-05-29T10:53:13Z</time>
      </trkpt>
      <trkpt lat="43.60439" lon="7.04912">
        <ele>235</ele>
        <time>2009-05-29T10:53:15Z</time>
      </trkpt>
      <trkpt lat="43.60421" lon="7.04932">
        <ele>234</ele>
        <time>2009-05-29T10:53:24Z</time>
      </trkpt>
      <trkpt lat="43.60425" lon="7.04924">
        <ele>234</ele>
        <time>2009-05-29T10:53:25Z</time>
      </trkpt>
      <trkpt lat="43.60429" lon="7.04919">
        <ele>234</ele>
        <time>2009-05-29T10:53:26Z</time>
      </trkpt>
      <trkpt lat="43.60429" lon="7.04919">
        <ele>233</ele>
        <time>2009-05-29T10:53:30Z</time>
      </trkpt>
      <trkpt lat="43.60424" lon="7.04921">
        <ele>233</ele>
        <time>2009-05-29T10:53:36Z</time>
      </trkpt>
      <trkpt lat="43.60424" lon="7.04922">
        <ele>233</ele>
        <time>2009-05-29T10:53:37Z</time>
      </trkpt>
      <trkpt lat="43.60423" lon="7.04929">
        <ele>233</ele>
        <time>2009-05-29T10:53:40Z</time>
      </trkpt>
      <trkpt lat="43.60418" lon="7.04933">
        <ele>232</ele>
        <time>2009-05-29T10:53:50Z</time>
      </trkpt>
      <trkpt lat="43.60414" lon="7.04937">
        <ele>232</ele>
        <time>2009-05-29T10:53:56Z</time>
      </trkpt>
      <trkpt lat="43.60421" lon="7.04937">
        <ele>230</ele>
        <time>2009-05-29T10:53:57Z</time>
      </trkpt>
      <trkpt lat="43.60415" lon="7.0494">
        <ele>227</ele>
        <time>2009-05-29T10:54:00Z</time>
      </trkpt>
      <trkpt lat="43.60412" lon="7.04943">
        <ele>226</ele>
        <time>2009-05-29T10:54:01Z</time>
      </trkpt>
      <trkpt lat="43.60414" lon="7.04948">
        <ele>220</ele>
        <time>2009-05-29T10:54:07Z</time>
      </trkpt>
      <trkpt lat="43.60411" lon="7.04951">
        <ele>219</ele>
        <time>2009-05-29T10:54:08Z</time>
      </trkpt>
      <trkpt lat="43.60406" lon="7.04949">
        <ele>211</ele>
        <time>2009-05-29T10:54:16Z</time>
      </trkpt>
      <trkpt lat="43.60402" lon="7.04949">
        <ele>207</ele>
        <time>2009-05-29T10:54:24Z</time>
      </trkpt>
      <trkpt lat="43.60403" lon="7.04944">
        <ele>212</ele>
        <time>2009-05-29T10:55:40Z</time>
      </trkpt>
      <trkpt lat="43.60403" lon="7.04943">
        <ele>213</ele>
        <time>2009-05-29T10:55:42Z</time>
      </trkpt>
      <trkpt lat="43.60369" lon="7.0492">
        <ele>211</ele>
        <time>2009-05-29T10:55:44Z</time>
      </trkpt>
      <trkpt lat="43.6036" lon="7.04915">
        <ele>211</ele>
        <time>2009-05-29T10:55:48Z</time>
      </trkpt>
      <trkpt lat="43.60356" lon="7.04898">
        <ele>211</ele>
        <time>2009-05-29T10:55:57Z</time>
      </trkpt>
      <trkpt lat="43.60348" lon="7.04897">
        <ele>210</ele>
        <time>2009-05-29T10:55:59Z</time>
      </trkpt>
      <trkpt lat="43.60342" lon="7.04896">
        <ele>210</ele>
        <time>2009-05-29T10:56:03Z</time>
      </trkpt>
      <trkpt lat="43.60334" lon="7.04887">
        <ele>210</ele>
        <time>2009-05-29T10:56:10Z</time>
      </trkpt>
      <trkpt lat="43.60327" lon="7.04882">
        <ele>211</ele>
        <time>2009-05-29T10:56:14Z</time>
      </trkpt>
      <trkpt lat="43.60324" lon="7.04874">
        <ele>212</ele>
        <time>2009-05-29T10:56:18Z</time>
      </trkpt>
      <trkpt lat="43.60322" lon="7.04865">
        <ele>211</ele>
        <time>2009-05-29T10:56:22Z</time>
      </trkpt>
      <trkpt lat="43.60317" lon="7.04864">
        <ele>211</ele>
        <time>2009-05-29T10:56:23Z</time>
      </trkpt>
      <trkpt lat="43.60317" lon="7.04857">
        <ele>211</ele>
        <time>2009-05-29T10:56:24Z</time>
      </trkpt>
      <trkpt lat="43.60301" lon="7.0484">
        <ele>212</ele>
        <time>2009-05-29T10:56:33Z</time>
      </trkpt>
      <trkpt lat="43.60303" lon="7.04831">
        <ele>211</ele>
        <time>2009-05-29T10:56:35Z</time>
      </trkpt>
      <trkpt lat="43.60306" lon="7.04823">
        <ele>213</ele>
        <time>2009-05-29T10:56:39Z</time>
      </trkpt>
      <trkpt lat="43.60311" lon="7.04817">
        <ele>212</ele>
        <time>2009-05-29T10:56:43Z</time>
      </trkpt>
      <trkpt lat="43.60317" lon="7.04808">
        <ele>213</ele>
        <time>2009-05-29T10:56:47Z</time>
      </trkpt>
      <trkpt lat="43.60326" lon="7.04793">
        <ele>214</ele>
        <time>2009-05-29T10:57:00Z</time>
      </trkpt>
      <trkpt lat="43.60329" lon="7.04776">
        <ele>222</ele>
        <time>2009-05-29T10:57:10Z</time>
      </trkpt>
      <trkpt lat="43.60325" lon="7.04771">
        <ele>222</ele>
        <time>2009-05-29T10:57:12Z</time>
      </trkpt>
      <trkpt lat="43.60324" lon="7.04764">
        <ele>221</ele>
        <time>2009-05-29T10:57:15Z</time>
      </trkpt>
      <trkpt lat="43.60326" lon="7.04754">
        <ele>220</ele>
        <time>2009-05-29T10:57:19Z</time>
      </trkpt>
      <trkpt lat="43.60322" lon="7.04748">
        <ele>220</ele>
        <time>2009-05-29T10:57:25Z</time>
      </trkpt>
      <trkpt lat="43.60323" lon="7.04732">
        <ele>221</ele>
        <time>2009-05-29T10:57:34Z</time>
      </trkpt>
      <trkpt lat="43.60319" lon="7.04732">
        <ele>221</ele>
        <time>2009-05-29T10:57:35Z</time>
      </trkpt>
      <trkpt lat="43.6032" lon="7.04717">
        <ele>225</ele>
        <time>2009-05-29T10:57:40Z</time>
      </trkpt>
      <trkpt lat="43.6032" lon="7.0471">
        <ele>225</ele>
        <time>2009-05-29T10:57:44Z</time>
      </trkpt>
      <trkpt lat="43.60315" lon="7.04712">
        <ele>226</ele>
        <time>2009-05-29T10:57:45Z</time>
      </trkpt>
      <trkpt lat="43.6031" lon="7.0471">
        <ele>227</ele>
        <time>2009-05-29T10:57:48Z</time>
      </trkpt>
      <trkpt lat="43.603" lon="7.04703">
        <ele>228</ele>
        <time>2009-05-29T10:57:59Z</time>
      </trkpt>
      <trkpt lat="43.60295" lon="7.04697">
        <ele>230</ele>
        <time>2009-05-29T10:58:01Z</time>
      </trkpt>
      <trkpt lat="43.60277" lon="7.04696">
        <ele>231</ele>
        <time>2009-05-29T10:58:05Z</time>
      </trkpt>
      <trkpt lat="43.60272" lon="7.04691">
        <ele>231</ele>
        <time>2009-05-29T10:58:12Z</time>
      </trkpt>
      <trkpt lat="43.60276" lon="7.04687">
        <ele>231</ele>
        <time>2009-05-29T10:58:16Z</time>
      </trkpt>
      <trkpt lat="43.60281" lon="7.04681">
        <ele>232</ele>
        <time>2009-05-29T10:58:20Z</time>
      </trkpt>
      <trkpt lat="43.60286" lon="7.04679">
        <ele>232</ele>
        <time>2009-05-29T10:58:21Z</time>
      </trkpt>
      <trkpt lat="43.60292" lon="7.04677">
        <ele>233</ele>
        <time>2009-05-29T10:58:25Z</time>
      </trkpt>
      <trkpt lat="43.60302" lon="7.04676">
        <ele>232</ele>
        <time>2009-05-29T10:58:33Z</time>
      </trkpt>
      <trkpt lat="43.60309" lon="7.04675">
        <ele>234</ele>
        <time>2009-05-29T10:58:37Z</time>
      </trkpt>
      <trkpt lat="43.60314" lon="7.0467">
        <ele>234</ele>
        <time>2009-05-29T10:58:41Z</time>
      </trkpt>
      <trkpt lat="43.60325" lon="7.04666">
        <ele>235</ele>
        <time>2009-05-29T10:58:45Z</time>
      </trkpt>
      <trkpt lat="43.60331" lon="7.04665">
        <ele>236</ele>
        <time>2009-05-29T10:58:49Z</time>
      </trkpt>
      <trkpt lat="43.60331" lon="7.04665">
        <ele>236</ele>
        <time>2009-05-29T10:58:49Z</time>
      </trkpt>
      <trkpt lat="43.60331" lon="7.04665">
        <ele>236</ele>
        <time>2009-05-29T10:58:50Z</time>
      </trkpt>
      <trkpt lat="43.60343" lon="7.04655">
        <ele>236</ele>
        <time>2009-05-29T10:58:58Z</time>
      </trkpt>
      <trkpt lat="43.60343" lon="7.04655">
        <ele>236</ele>
        <time>2009-05-29T10:58:58Z</time>
      </trkpt>
      <trkpt lat="43.60345" lon="7.04654">
        <ele>237</ele>
        <time>2009-05-29T10:59:03Z</time>
      </trkpt>
      <trkpt lat="43.60349" lon="7.04648">
        <ele>239</ele>
        <time>2009-05-29T10:59:10Z</time>
      </trkpt>
      <trkpt lat="43.60355" lon="7.0464">
        <ele>240</ele>
        <time>2009-05-29T10:59:14Z</time>
      </trkpt>
      <trkpt lat="43.60351" lon="7.04642">
        <ele>241</ele>
        <time>2009-05-29T10:59:18Z</time>
      </trkpt>
      <trkpt lat="43.60351" lon="7.04638">
        <ele>241</ele>
        <time>2009-05-29T10:59:22Z</time>
      </trkpt>
      <trkpt lat="43.6035" lon="7.04636">
        <ele>242</ele>
        <time>2009-05-29T10:59:23Z</time>
      </trkpt>
      <trkpt lat="43.60342" lon="7.04628">
        <ele>243</ele>
        <time>2009-05-29T10:59:31Z</time>
      </trkpt>
      <trkpt lat="43.60337" lon="7.04627">
        <ele>244</ele>
        <time>2009-05-29T10:59:32Z</time>
      </trkpt>
      <trkpt lat="43.60341" lon="7.04621">
        <ele>244</ele>
        <time>2009-05-29T10:59:36Z</time>
      </trkpt>
      <trkpt lat="43.60346" lon="7.04622">
        <ele>245</ele>
        <time>2009-05-29T10:59:43Z</time>
      </trkpt>
      <trkpt lat="43.60351" lon="7.04623">
        <ele>245</ele>
        <time>2009-05-29T10:59:47Z</time>
      </trkpt>
      <trkpt lat="43.60363" lon="7.0462">
        <ele>245</ele>
        <time>2009-05-29T10:59:56Z</time>
      </trkpt>
      <trkpt lat="43.60368" lon="7.04614">
        <ele>246</ele>
        <time>2009-05-29T11:00:01Z</time>
      </trkpt>
      <trkpt lat="43.60379" lon="7.04596">
        <ele>248</ele>
        <time>2009-05-29T11:00:09Z</time>
      </trkpt>
      <trkpt lat="43.60383" lon="7.04587">
        <ele>250</ele>
        <time>2009-05-29T11:00:13Z</time>
      </trkpt>
      <trkpt lat="43.60385" lon="7.04579">
        <ele>250</ele>
        <time>2009-05-29T11:00:16Z</time>
      </trkpt>
      <trkpt lat="43.60387" lon="7.04567">
        <ele>250</ele>
        <time>2009-05-29T11:00:20Z</time>
      </trkpt>
      <trkpt lat="43.60387" lon="7.04559">
        <ele>250</ele>
        <time>2009-05-29T11:00:24Z</time>
      </trkpt>
      <trkpt lat="43.60386" lon="7.04551">
        <ele>250</ele>
        <time>2009-05-29T11:00:33Z</time>
      </trkpt>
      <trkpt lat="43.60384" lon="7.04548">
        <ele>250</ele>
        <time>2009-05-29T11:00:38Z</time>
      </trkpt>
      <trkpt lat="43.60386" lon="7.04545">
        <ele>250</ele>
        <time>2009-05-29T11:00:44Z</time>
      </trkpt>
      <trkpt lat="43.60388" lon="7.04543">
        <ele>250</ele>
        <time>2009-05-29T11:00:47Z</time>
      </trkpt>
      <trkpt lat="43.60379" lon="7.04543">
        <ele>248</ele>
        <time>2009-05-29T11:00:56Z</time>
      </trkpt>
      <trkpt lat="43.60373" lon="7.04541">
        <ele>251</ele>
        <time>2009-05-29T11:01:05Z</time>
      </trkpt>
      <trkpt lat="43.60368" lon="7.04541">
        <ele>251</ele>
        <time>2009-05-29T11:01:09Z</time>
      </trkpt>
      <trkpt lat="43.60366" lon="7.04535">
        <ele>249</ele>
        <time>2009-05-29T11:01:20Z</time>
      </trkpt>
      <trkpt lat="43.60362" lon="7.0453">
        <ele>250</ele>
        <time>2009-05-29T11:01:25Z</time>
      </trkpt>
      <trkpt lat="43.60357" lon="7.04526">
        <ele>252</ele>
        <time>2009-05-29T11:01:35Z</time>
      </trkpt>
      <trkpt lat="43.60359" lon="7.04464">
        <ele>250</ele>
        <time>2009-05-29T11:01:37Z</time>
      </trkpt>
      <trkpt lat="43.60362" lon="7.04453">
        <ele>251</ele>
        <time>2009-05-29T11:01:40Z</time>
      </trkpt>
      <trkpt lat="43.60363" lon="7.04446">
        <ele>251</ele>
        <time>2009-05-29T11:01:41Z</time>
      </trkpt>
      <trkpt lat="43.60364" lon="7.04439">
        <ele>252</ele>
        <time>2009-05-29T11:01:42Z</time>
      </trkpt>
      <trkpt lat="43.6037" lon="7.04424">
        <ele>253</ele>
        <time>2009-05-29T11:01:45Z</time>
      </trkpt>
      <trkpt lat="43.60372" lon="7.04417">
        <ele>254</ele>
        <time>2009-05-29T11:01:46Z</time>
      </trkpt>
      <trkpt lat="43.60371" lon="7.04407">
        <ele>255</ele>
        <time>2009-05-29T11:01:50Z</time>
      </trkpt>
      <trkpt lat="43.60371" lon="7.04378">
        <ele>255</ele>
        <time>2009-05-29T11:01:58Z</time>
      </trkpt>
      <trkpt lat="43.60373" lon="7.0437">
        <ele>255</ele>
        <time>2009-05-29T11:01:59Z</time>
      </trkpt>
      <trkpt lat="43.60374" lon="7.04361">
        <ele>255</ele>
        <time>2009-05-29T11:02:00Z</time>
      </trkpt>
      <trkpt lat="43.60378" lon="7.04341">
        <ele>255</ele>
        <time>2009-05-29T11:02:03Z</time>
      </trkpt>
      <trkpt lat="43.60379" lon="7.04333">
        <ele>256</ele>
        <time>2009-05-29T11:02:04Z</time>
      </trkpt>
      <trkpt lat="43.60379" lon="7.04324">
        <ele>255</ele>
        <time>2009-05-29T11:02:05Z</time>
      </trkpt>
      <trkpt lat="43.60378" lon="7.04304">
        <ele>255</ele>
        <time>2009-05-29T11:02:08Z</time>
      </trkpt>
      <trkpt lat="43.60381" lon="7.04287">
        <ele>254</ele>
        <time>2009-05-29T11:02:12Z</time>
      </trkpt>
      <trkpt lat="43.60376" lon="7.04274">
        <ele>253</ele>
        <time>2009-05-29T11:02:16Z</time>
      </trkpt>
      <trkpt lat="43.60372" lon="7.0426">
        <ele>250</ele>
        <time>2009-05-29T11:02:20Z</time>
      </trkpt>
      <trkpt lat="43.60364" lon="7.04251">
        <ele>249</ele>
        <time>2009-05-29T11:02:24Z</time>
      </trkpt>
      <trkpt lat="43.60359" lon="7.04248">
        <ele>249</ele>
        <time>2009-05-29T11:02:25Z</time>
      </trkpt>
      <trkpt lat="43.60344" lon="7.04211">
        <ele>248</ele>
        <time>2009-05-29T11:02:33Z</time>
      </trkpt>
      <trkpt lat="43.60336" lon="7.04207">
        <ele>245</ele>
        <time>2009-05-29T11:02:34Z</time>
      </trkpt>
      <trkpt lat="43.60334" lon="7.04198">
        <ele>244</ele>
        <time>2009-05-29T11:02:35Z</time>
      </trkpt>
      <trkpt lat="43.60311" lon="7.0419">
        <ele>245</ele>
        <time>2009-05-29T11:02:38Z</time>
      </trkpt>
      <trkpt lat="43.60302" lon="7.04185">
        <ele>243</ele>
        <time>2009-05-29T11:02:39Z</time>
      </trkpt>
      <trkpt lat="43.60298" lon="7.04179">
        <ele>243</ele>
        <time>2009-05-29T11:02:40Z</time>
      </trkpt>
      <trkpt lat="43.60297" lon="7.04162">
        <ele>241</ele>
        <time>2009-05-29T11:02:43Z</time>
      </trkpt>
      <trkpt lat="43.60299" lon="7.04148">
        <ele>240</ele>
        <time>2009-05-29T11:02:46Z</time>
      </trkpt>
      <trkpt lat="43.60311" lon="7.04131">
        <ele>236</ele>
        <time>2009-05-29T11:02:56Z</time>
      </trkpt>
      <trkpt lat="43.60305" lon="7.04134">
        <ele>240</ele>
        <time>2009-05-29T11:03:01Z</time>
      </trkpt>
      <trkpt lat="43.60299" lon="7.04134">
        <ele>241</ele>
        <time>2009-05-29T11:03:08Z</time>
      </trkpt>
      <trkpt lat="43.60303" lon="7.04129">
        <ele>242</ele>
        <time>2009-05-29T11:03:11Z</time>
      </trkpt>
      <trkpt lat="43.60305" lon="7.04129">
        <ele>242</ele>
        <time>2009-05-29T11:03:16Z</time>
      </trkpt>
      <trkpt lat="43.60302" lon="7.0413">
        <ele>242</ele>
        <time>2009-05-29T11:03:19Z</time>
      </trkpt>
      <trkpt lat="43.603" lon="7.04133">
        <ele>242</ele>
        <time>2009-05-29T11:03:20Z</time>
      </trkpt>
      <trkpt lat="43.60294" lon="7.04134">
        <ele>242</ele>
        <time>2009-05-29T11:03:29Z</time>
      </trkpt>
      <trkpt lat="43.60293" lon="7.04122">
        <ele>241</ele>
        <time>2009-05-29T11:03:38Z</time>
      </trkpt>
      <trkpt lat="43.60291" lon="7.04106">
        <ele>240</ele>
        <time>2009-05-29T11:03:42Z</time>
      </trkpt>
      <trkpt lat="43.60294" lon="7.04097">
        <ele>239</ele>
        <time>2009-05-29T11:03:43Z</time>
      </trkpt>
      <trkpt lat="43.60283" lon="7.04049">
        <ele>237</ele>
        <time>2009-05-29T11:03:52Z</time>
      </trkpt>
      <trkpt lat="43.6028" lon="7.04034">
        <ele>236</ele>
        <time>2009-05-29T11:03:53Z</time>
      </trkpt>
      <trkpt lat="43.60279" lon="7.04027">
        <ele>236</ele>
        <time>2009-05-29T11:03:54Z</time>
      </trkpt>
      <trkpt lat="43.60274" lon="7.04014">
        <ele>237</ele>
        <time>2009-05-29T11:03:57Z</time>
      </trkpt>
      <trkpt lat="43.60274" lon="7.04005">
        <ele>237</ele>
        <time>2009-05-29T11:03:58Z</time>
      </trkpt>
      <trkpt lat="43.60273" lon="7.03998">
        <ele>238</ele>
        <time>2009-05-29T11:03:59Z</time>
      </trkpt>
      <trkpt lat="43.60272" lon="7.0398">
        <ele>237</ele>
        <time>2009-05-29T11:04:02Z</time>
      </trkpt>
      <trkpt lat="43.60275" lon="7.03973">
        <ele>237</ele>
        <time>2009-05-29T11:04:03Z</time>
      </trkpt>
      <trkpt lat="43.60284" lon="7.0395">
        <ele>236</ele>
        <time>2009-05-29T11:04:08Z</time>
      </trkpt>
      <trkpt lat="43.60287" lon="7.03943">
        <ele>236</ele>
        <time>2009-05-29T11:04:11Z</time>
      </trkpt>
      <trkpt lat="43.60293" lon="7.03937">
        <ele>235</ele>
        <time>2009-05-29T11:04:15Z</time>
      </trkpt>
      <trkpt lat="43.60299" lon="7.03935">
        <ele>235</ele>
        <time>2009-05-29T11:04:19Z</time>
      </trkpt>
      <trkpt lat="43.60306" lon="7.03937">
        <ele>236</ele>
        <time>2009-05-29T11:04:23Z</time>
      </trkpt>
      <trkpt lat="43.60312" lon="7.03945">
        <ele>237</ele>
        <time>2009-05-29T11:04:32Z</time>
      </trkpt>
      <trkpt lat="43.60318" lon="7.0395">
        <ele>237</ele>
        <time>2009-05-29T11:04:36Z</time>
      </trkpt>
      <trkpt lat="43.60322" lon="7.03956">
        <ele>237</ele>
        <time>2009-05-29T11:04:40Z</time>
      </trkpt>
      <trkpt lat="43.60322" lon="7.03966">
        <ele>238</ele>
        <time>2009-05-29T11:04:44Z</time>
      </trkpt>
      <trkpt lat="43.60324" lon="7.03976">
        <ele>238</ele>
        <time>2009-05-29T11:04:48Z</time>
      </trkpt>
      <trkpt lat="43.60322" lon="7.03984">
        <ele>240</ele>
        <time>2009-05-29T11:04:49Z</time>
      </trkpt>
      <trkpt lat="43.6033" lon="7.03997">
        <ele>241</ele>
        <time>2009-05-29T11:04:57Z</time>
      </trkpt>
      <trkpt lat="43.60329" lon="7.04006">
        <ele>242</ele>
        <time>2009-05-29T11:04:58Z</time>
      </trkpt>
      <trkpt lat="43.60327" lon="7.04013">
        <ele>243</ele>
        <time>2009-05-29T11:04:59Z</time>
      </trkpt>
      <trkpt lat="43.60329" lon="7.0402">
        <ele>243</ele>
        <time>2009-05-29T11:05:02Z</time>
      </trkpt>
      <trkpt lat="43.60335" lon="7.04023">
        <ele>245</ele>
        <time>2009-05-29T11:05:04Z</time>
      </trkpt>
      <trkpt lat="43.60337" lon="7.04043">
        <ele>246</ele>
        <time>2009-05-29T11:05:08Z</time>
      </trkpt>
      <trkpt lat="43.60342" lon="7.04051">
        <ele>245</ele>
        <time>2009-05-29T11:05:11Z</time>
      </trkpt>
      <trkpt lat="43.60342" lon="7.04062">
        <ele>245</ele>
        <time>2009-05-29T11:05:12Z</time>
      </trkpt>
      <trkpt lat="43.60342" lon="7.04076">
        <ele>247</ele>
        <time>2009-05-29T11:05:15Z</time>
      </trkpt>
      <trkpt lat="43.60342" lon="7.04083">
        <ele>247</ele>
        <time>2009-05-29T11:05:16Z</time>
      </trkpt>
      <trkpt lat="43.60347" lon="7.04093">
        <ele>249</ele>
        <time>2009-05-29T11:05:19Z</time>
      </trkpt>
      <trkpt lat="43.60349" lon="7.04101">
        <ele>248</ele>
        <time>2009-05-29T11:05:20Z</time>
      </trkpt>
      <trkpt lat="43.60353" lon="7.04113">
        <ele>248</ele>
        <time>2009-05-29T11:05:23Z</time>
      </trkpt>
      <trkpt lat="43.60359" lon="7.04117">
        <ele>247</ele>
        <time>2009-05-29T11:05:24Z</time>
      </trkpt>
      <trkpt lat="43.60374" lon="7.04156">
        <ele>247</ele>
        <time>2009-05-29T11:05:32Z</time>
      </trkpt>
      <trkpt lat="43.60378" lon="7.04158">
        <ele>246</ele>
        <time>2009-05-29T11:05:33Z</time>
      </trkpt>
      <trkpt lat="43.60384" lon="7.04156">
        <ele>247</ele>
        <time>2009-05-29T11:05:34Z</time>
      </trkpt>
      <trkpt lat="43.60393" lon="7.04161">
        <ele>246</ele>
        <time>2009-05-29T11:05:37Z</time>
      </trkpt>
      <trkpt lat="43.604" lon="7.04164">
        <ele>245</ele>
        <time>2009-05-29T11:05:39Z</time>
      </trkpt>
      <trkpt lat="43.6041" lon="7.04168">
        <ele>245</ele>
        <time>2009-05-29T11:05:42Z</time>
      </trkpt>
      <trkpt lat="43.60422" lon="7.04178">
        <ele>245</ele>
        <time>2009-05-29T11:05:46Z</time>
      </trkpt>
      <trkpt lat="43.60448" lon="7.04194">
        <ele>244</ele>
        <time>2009-05-29T11:05:55Z</time>
      </trkpt>
      <trkpt lat="43.60456" lon="7.04205">
        <ele>244</ele>
        <time>2009-05-29T11:05:59Z</time>
      </trkpt>
      <trkpt lat="43.60466" lon="7.04212">
        <ele>245</ele>
        <time>2009-05-29T11:06:02Z</time>
      </trkpt>
      <trkpt lat="43.60468" lon="7.04218">
        <ele>245</ele>
        <time>2009-05-29T11:06:03Z</time>
      </trkpt>
      <trkpt lat="43.60474" lon="7.04239">
        <ele>244</ele>
        <time>2009-05-29T11:06:07Z</time>
      </trkpt>
      <trkpt lat="43.6048" lon="7.04247">
        <ele>244</ele>
        <time>2009-05-29T11:06:11Z</time>
      </trkpt>
      <trkpt lat="43.60481" lon="7.04253">
        <ele>244</ele>
        <time>2009-05-29T11:06:12Z</time>
      </trkpt>
      <trkpt lat="43.60483" lon="7.04259">
        <ele>244</ele>
        <time>2009-05-29T11:06:15Z</time>
      </trkpt>
      <trkpt lat="43.60481" lon="7.04269">
        <ele>244</ele>
        <time>2009-05-29T11:06:16Z</time>
      </trkpt>
      <trkpt lat="43.60482" lon="7.0428">
        <ele>245</ele>
        <time>2009-05-29T11:06:19Z</time>
      </trkpt>
      <trkpt lat="43.60488" lon="7.04296">
        <ele>247</ele>
        <time>2009-05-29T11:06:22Z</time>
      </trkpt>
      <trkpt lat="43.60506" lon="7.04333">
        <ele>246</ele>
        <time>2009-05-29T11:06:32Z</time>
      </trkpt>
      <trkpt lat="43.60505" lon="7.04349">
        <ele>246</ele>
        <time>2009-05-29T11:06:33Z</time>
      </trkpt>
      <trkpt lat="43.60513" lon="7.04361">
        <ele>244</ele>
        <time>2009-05-29T11:06:37Z</time>
      </trkpt>
      <trkpt lat="43.60518" lon="7.04367">
        <ele>244</ele>
        <time>2009-05-29T11:06:39Z</time>
      </trkpt>
      <trkpt lat="43.6052" lon="7.04378">
        <ele>245</ele>
        <time>2009-05-29T11:06:42Z</time>
      </trkpt>
      <trkpt lat="43.60517" lon="7.04388">
        <ele>245</ele>
        <time>2009-05-29T11:06:43Z</time>
      </trkpt>
      <trkpt lat="43.60519" lon="7.04395">
        <ele>245</ele>
        <time>2009-05-29T11:06:45Z</time>
      </trkpt>
      <trkpt lat="43.60528" lon="7.04412">
        <ele>245</ele>
        <time>2009-05-29T11:06:55Z</time>
      </trkpt>
      <trkpt lat="43.60526" lon="7.04422">
        <ele>246</ele>
        <time>2009-05-29T11:06:56Z</time>
      </trkpt>
      <trkpt lat="43.60527" lon="7.0443">
        <ele>246</ele>
        <time>2009-05-29T11:06:57Z</time>
      </trkpt>
      <trkpt lat="43.60529" lon="7.04444">
        <ele>246</ele>
        <time>2009-05-29T11:07:00Z</time>
      </trkpt>
      <trkpt lat="43.60534" lon="7.04452">
        <ele>246</ele>
        <time>2009-05-29T11:07:02Z</time>
      </trkpt>
      <trkpt lat="43.60538" lon="7.04461">
        <ele>247</ele>
        <time>2009-05-29T11:07:05Z</time>
      </trkpt>
      <trkpt lat="43.6055" lon="7.04485">
        <ele>246</ele>
        <time>2009-05-29T11:07:10Z</time>
      </trkpt>
      <trkpt lat="43.60554" lon="7.04489">
        <ele>245</ele>
        <time>2009-05-29T11:07:11Z</time>
      </trkpt>
      <trkpt lat="43.60555" lon="7.04496">
        <ele>245</ele>
        <time>2009-05-29T11:07:12Z</time>
      </trkpt>
      <trkpt lat="43.60566" lon="7.045">
        <ele>245</ele>
        <time>2009-05-29T11:07:15Z</time>
      </trkpt>
      <trkpt lat="43.60574" lon="7.04508">
        <ele>246</ele>
        <time>2009-05-29T11:07:17Z</time>
      </trkpt>
      <trkpt lat="43.60585" lon="7.04518">
        <ele>245</ele>
        <time>2009-05-29T11:07:20Z</time>
      </trkpt>
      <trkpt lat="43.60585" lon="7.04526">
        <ele>245</ele>
        <time>2009-05-29T11:07:21Z</time>
      </trkpt>
      <trkpt lat="43.6059" lon="7.04532">
        <ele>246</ele>
        <time>2009-05-29T11:07:22Z</time>
      </trkpt>
      <trkpt lat="43.60607" lon="7.04559">
        <ele>248</ele>
        <time>2009-05-29T11:07:30Z</time>
      </trkpt>
      <trkpt lat="43.60606" lon="7.04572">
        <ele>246</ele>
        <time>2009-05-29T11:07:31Z</time>
      </trkpt>
      <trkpt lat="43.60605" lon="7.04588">
        <ele>246</ele>
        <time>2009-05-29T11:07:32Z</time>
      </trkpt>
      <trkpt lat="43.6061" lon="7.04599">
        <ele>246</ele>
        <time>2009-05-29T11:07:35Z</time>
      </trkpt>
      <trkpt lat="43.6061" lon="7.04611">
        <ele>245</ele>
        <time>2009-05-29T11:07:36Z</time>
      </trkpt>
      <trkpt lat="43.60609" lon="7.04621">
        <ele>244</ele>
        <time>2009-05-29T11:07:37Z</time>
      </trkpt>
      <trkpt lat="43.60608" lon="7.04639">
        <ele>244</ele>
        <time>2009-05-29T11:07:40Z</time>
      </trkpt>
      <trkpt lat="43.60605" lon="7.0465">
        <ele>244</ele>
        <time>2009-05-29T11:07:42Z</time>
      </trkpt>
      <trkpt lat="43.60601" lon="7.04665">
        <ele>244</ele>
        <time>2009-05-29T11:07:45Z</time>
      </trkpt>
      <trkpt lat="43.60595" lon="7.04677">
        <ele>244</ele>
        <time>2009-05-29T11:07:46Z</time>
      </trkpt>
      <trkpt lat="43.60592" lon="7.04704">
        <ele>244</ele>
        <time>2009-05-29T11:07:54Z</time>
      </trkpt>
      <trkpt lat="43.60586" lon="7.0472">
        <ele>243</ele>
        <time>2009-05-29T11:07:55Z</time>
      </trkpt>
      <trkpt lat="43.60584" lon="7.0473">
        <ele>241</ele>
        <time>2009-05-29T11:07:56Z</time>
      </trkpt>
      <trkpt lat="43.60578" lon="7.04751">
        <ele>240</ele>
        <time>2009-05-29T11:07:59Z</time>
      </trkpt>
      <trkpt lat="43.60575" lon="7.04758">
        <ele>239</ele>
        <time>2009-05-29T11:08:00Z</time>
      </trkpt>
      <trkpt lat="43.60571" lon="7.04774">
        <ele>238</ele>
        <time>2009-05-29T11:08:04Z</time>
      </trkpt>
      <trkpt lat="43.60563" lon="7.04793">
        <ele>238</ele>
        <time>2009-05-29T11:08:09Z</time>
      </trkpt>
      <trkpt lat="43.60555" lon="7.04808">
        <ele>237</ele>
        <time>2009-05-29T11:08:12Z</time>
      </trkpt>
      <trkpt lat="43.60547" lon="7.04821">
        <ele>237</ele>
        <time>2009-05-29T11:08:13Z</time>
      </trkpt>
      <trkpt lat="43.60539" lon="7.04835">
        <ele>237</ele>
        <time>2009-05-29T11:08:16Z</time>
      </trkpt>
      <trkpt lat="43.60532" lon="7.04842">
        <ele>236</ele>
        <time>2009-05-29T11:08:17Z</time>
      </trkpt>
      <trkpt lat="43.6052" lon="7.04858">
        <ele>236</ele>
        <time>2009-05-29T11:08:20Z</time>
      </trkpt>
      <trkpt lat="43.60508" lon="7.0487">
        <ele>235</ele>
        <time>2009-05-29T11:08:21Z</time>
      </trkpt>
      <trkpt lat="43.605" lon="7.04883">
        <ele>234</ele>
        <time>2009-05-29T11:08:24Z</time>
      </trkpt>
      <trkpt lat="43.60483" lon="7.04931">
        <ele>234</ele>
        <time>2009-05-29T11:08:33Z</time>
      </trkpt>
      <trkpt lat="43.6048" lon="7.04938">
        <ele>234</ele>
        <time>2009-05-29T11:08:34Z</time>
      </trkpt>
      <trkpt lat="43.60476" lon="7.04948">
        <ele>234</ele>
        <time>2009-05-29T11:08:38Z</time>
      </trkpt>
      <trkpt lat="43.60481" lon="7.04957">
        <ele>231</ele>
        <time>2009-05-29T11:08:42Z</time>
      </trkpt>
      <trkpt lat="43.60483" lon="7.04968">
        <ele>230</ele>
        <time>2009-05-29T11:08:46Z</time>
      </trkpt>
      <trkpt lat="43.60492" lon="7.04971">
        <ele>228</ele>
        <time>2009-05-29T11:08:50Z</time>
      </trkpt>
      <trkpt lat="43.60511" lon="7.04971">
        <ele>224</ele>
        <time>2009-05-29T11:08:59Z</time>
      </trkpt>
      <trkpt lat="43.60517" lon="7.04967">
        <ele>222</ele>
        <time>2009-05-29T11:09:00Z</time>
      </trkpt>
      <trkpt lat="43.60525" lon="7.04959">
        <ele>221</ele>
        <time>2009-05-29T11:09:03Z</time>
      </trkpt>
      <trkpt lat="43.60529" lon="7.04956">
        <ele>220</ele>
        <time>2009-05-29T11:09:04Z</time>
      </trkpt>
      <trkpt lat="43.60541" lon="7.0495">
        <ele>219</ele>
        <time>2009-05-29T11:09:08Z</time>
      </trkpt>
      <trkpt lat="43.60549" lon="7.04942">
        <ele>218</ele>
        <time>2009-05-29T11:09:11Z</time>
      </trkpt>
      <trkpt lat="43.60552" lon="7.04937">
        <ele>218</ele>
        <time>2009-05-29T11:09:12Z</time>
      </trkpt>
      <trkpt lat="43.6056" lon="7.04925">
        <ele>215</ele>
        <time>2009-05-29T11:09:15Z</time>
      </trkpt>
      <trkpt lat="43.60566" lon="7.04915">
        <ele>213</ele>
        <time>2009-05-29T11:09:16Z</time>
      </trkpt>
      <trkpt lat="43.60577" lon="7.04903">
        <ele>212</ele>
        <time>2009-05-29T11:09:18Z</time>
      </trkpt>
      <trkpt lat="43.60583" lon="7.04898">
        <ele>211</ele>
        <time>2009-05-29T11:09:19Z</time>
      </trkpt>
      <trkpt lat="43.60594" lon="7.04887">
        <ele>213</ele>
        <time>2009-05-29T11:09:22Z</time>
      </trkpt>
      <trkpt lat="43.60599" lon="7.04882">
        <ele>212</ele>
        <time>2009-05-29T11:09:23Z</time>
      </trkpt>
      <trkpt lat="43.60621" lon="7.04856">
        <ele>211</ele>
        <time>2009-05-29T11:09:32Z</time>
      </trkpt>
      <trkpt lat="43.60625" lon="7.04849">
        <ele>210</ele>
        <time>2009-05-29T11:09:33Z</time>
      </trkpt>
      <trkpt lat="43.60635" lon="7.04837">
        <ele>208</ele>
        <time>2009-05-29T11:09:36Z</time>
      </trkpt>
      <trkpt lat="43.60641" lon="7.0483">
        <ele>207</ele>
        <time>2009-05-29T11:09:37Z</time>
      </trkpt>
      <trkpt lat="43.60651" lon="7.0482">
        <ele>207</ele>
        <time>2009-05-29T11:09:40Z</time>
      </trkpt>
      <trkpt lat="43.60657" lon="7.04815">
        <ele>206</ele>
        <time>2009-05-29T11:09:41Z</time>
      </trkpt>
      <trkpt lat="43.60666" lon="7.04805">
        <ele>205</ele>
        <time>2009-05-29T11:09:44Z</time>
      </trkpt>
      <trkpt lat="43.6067" lon="7.048">
        <ele>204</ele>
        <time>2009-05-29T11:09:45Z</time>
      </trkpt>
      <trkpt lat="43.60681" lon="7.04787">
        <ele>203</ele>
        <time>2009-05-29T11:09:48Z</time>
      </trkpt>
      <trkpt lat="43.60689" lon="7.04776">
        <ele>203</ele>
        <time>2009-05-29T11:09:49Z</time>
      </trkpt>
      <trkpt lat="43.60718" lon="7.04735">
        <ele>203</ele>
        <time>2009-05-29T11:09:57Z</time>
      </trkpt>
      <trkpt lat="43.60728" lon="7.0472">
        <ele>203</ele>
        <time>2009-05-29T11:09:58Z</time>
      </trkpt>
      <trkpt lat="43.60736" lon="7.04691">
        <ele>203</ele>
        <time>2009-05-29T11:10:01Z</time>
      </trkpt>
      <trkpt lat="43.60738" lon="7.04679">
        <ele>203</ele>
        <time>2009-05-29T11:10:02Z</time>
      </trkpt>
      <trkpt lat="43.60749" lon="7.04617">
        <ele>203</ele>
        <time>2009-05-29T11:10:09Z</time>
      </trkpt>
      <trkpt lat="43.60762" lon="7.04598">
        <ele>202</ele>
        <time>2009-05-29T11:10:12Z</time>
      </trkpt>
      <trkpt lat="43.60768" lon="7.04592">
        <ele>202</ele>
        <time>2009-05-29T11:10:13Z</time>
      </trkpt>
      <trkpt lat="43.60782" lon="7.04582">
        <ele>202</ele>
        <time>2009-05-29T11:10:16Z</time>
      </trkpt>
      <trkpt lat="43.60788" lon="7.04579">
        <ele>201</ele>
        <time>2009-05-29T11:10:17Z</time>
      </trkpt>
      <trkpt lat="43.60799" lon="7.04573">
        <ele>202</ele>
        <time>2009-05-29T11:10:20Z</time>
      </trkpt>
      <trkpt lat="43.60816" lon="7.04563">
        <ele>201</ele>
        <time>2009-05-29T11:10:24Z</time>
      </trkpt>
      <trkpt lat="43.60838" lon="7.04563">
        <ele>203</ele>
        <time>2009-05-29T11:10:32Z</time>
      </trkpt>
      <trkpt lat="43.60842" lon="7.0457">
        <ele>205</ele>
        <time>2009-05-29T11:10:36Z</time>
      </trkpt>
      <trkpt lat="43.60842" lon="7.04577">
        <ele>206</ele>
        <time>2009-05-29T11:10:40Z</time>
      </trkpt>
      <trkpt lat="43.60842" lon="7.04586">
        <ele>209</ele>
        <time>2009-05-29T11:10:44Z</time>
      </trkpt>
      <trkpt lat="43.60838" lon="7.04602">
        <ele>212</ele>
        <time>2009-05-29T11:10:48Z</time>
      </trkpt>
      <trkpt lat="43.60846" lon="7.04624">
        <ele>216</ele>
        <time>2009-05-29T11:10:56Z</time>
      </trkpt>
      <trkpt lat="43.60844" lon="7.04643">
        <ele>217</ele>
        <time>2009-05-29T11:10:57Z</time>
      </trkpt>
      <trkpt lat="43.60853" lon="7.04652">
        <ele>218</ele>
        <time>2009-05-29T11:11:00Z</time>
      </trkpt>
      <trkpt lat="43.60857" lon="7.04657">
        <ele>219</ele>
        <time>2009-05-29T11:11:01Z</time>
      </trkpt>
      <trkpt lat="43.60864" lon="7.04669">
        <ele>220</ele>
        <time>2009-05-29T11:11:05Z</time>
      </trkpt>
      <trkpt lat="43.60877" lon="7.04691">
        <ele>219</ele>
        <time>2009-05-29T11:11:10Z</time>
      </trkpt>
      <trkpt lat="43.60877" lon="7.04698">
        <ele>220</ele>
        <time>2009-05-29T11:11:11Z</time>
      </trkpt>
      <trkpt lat="43.60878" lon="7.04709">
        <ele>220</ele>
        <time>2009-05-29T11:11:14Z</time>
      </trkpt>
      <trkpt lat="43.60877" lon="7.04719">
        <ele>219</ele>
        <time>2009-05-29T11:11:18Z</time>
      </trkpt>
      <trkpt lat="43.60881" lon="7.04726">
        <ele>219</ele>
        <time>2009-05-29T11:11:23Z</time>
      </trkpt>
      <trkpt lat="43.60895" lon="7.04733">
        <ele>220</ele>
        <time>2009-05-29T11:11:31Z</time>
      </trkpt>
      <trkpt lat="43.60902" lon="7.04738">
        <ele>217</ele>
        <time>2009-05-29T11:11:32Z</time>
      </trkpt>
      <trkpt lat="43.60911" lon="7.04741">
        <ele>217</ele>
        <time>2009-05-29T11:11:35Z</time>
      </trkpt>
      <trkpt lat="43.6092" lon="7.04738">
        <ele>215</ele>
        <time>2009-05-29T11:11:36Z</time>
      </trkpt>
      <trkpt lat="43.60932" lon="7.04732">
        <ele>213</ele>
        <time>2009-05-29T11:11:39Z</time>
      </trkpt>
      <trkpt lat="43.60937" lon="7.04726">
        <ele>213</ele>
        <time>2009-05-29T11:11:40Z</time>
      </trkpt>
      <trkpt lat="43.60943" lon="7.0472">
        <ele>212</ele>
        <time>2009-05-29T11:11:43Z</time>
      </trkpt>
      <trkpt lat="43.60946" lon="7.04713">
        <ele>212</ele>
        <time>2009-05-29T11:11:44Z</time>
      </trkpt>
      <trkpt lat="43.60955" lon="7.04701">
        <ele>212</ele>
        <time>2009-05-29T11:11:47Z</time>
      </trkpt>
      <trkpt lat="43.60962" lon="7.04692">
        <ele>211</ele>
        <time>2009-05-29T11:11:48Z</time>
      </trkpt>
      <trkpt lat="43.60995" lon="7.04657">
        <ele>211</ele>
        <time>2009-05-29T11:11:56Z</time>
      </trkpt>
      <trkpt lat="43.61006" lon="7.04647">
        <ele>210</ele>
        <time>2009-05-29T11:11:57Z</time>
      </trkpt>
      <trkpt lat="43.61017" lon="7.04642">
        <ele>208</ele>
        <time>2009-05-29T11:12:00Z</time>
      </trkpt>
      <trkpt lat="43.61023" lon="7.04637">
        <ele>208</ele>
        <time>2009-05-29T11:12:01Z</time>
      </trkpt>
      <trkpt lat="43.61035" lon="7.04628">
        <ele>208</ele>
        <time>2009-05-29T11:12:04Z</time>
      </trkpt>
      <trkpt lat="43.61059" lon="7.04626">
        <ele>206</ele>
        <time>2009-05-29T11:12:09Z</time>
      </trkpt>
      <trkpt lat="43.61069" lon="7.04633">
        <ele>207</ele>
        <time>2009-05-29T11:12:12Z</time>
      </trkpt>
      <trkpt lat="43.61071" lon="7.04638">
        <ele>208</ele>
        <time>2009-05-29T11:12:13Z</time>
      </trkpt>
      <trkpt lat="43.61081" lon="7.04649">
        <ele>208</ele>
        <time>2009-05-29T11:12:16Z</time>
      </trkpt>
      <trkpt lat="43.61095" lon="7.04664">
        <ele>208</ele>
        <time>2009-05-29T11:12:20Z</time>
      </trkpt>
      <trkpt lat="43.61101" lon="7.04677">
        <ele>208</ele>
        <time>2009-05-29T11:12:24Z</time>
      </trkpt>
      <trkpt lat="43.611" lon="7.04695">
        <ele>208</ele>
        <time>2009-05-29T11:12:33Z</time>
      </trkpt>
      <trkpt lat="43.61095" lon="7.04706">
        <ele>208</ele>
        <time>2009-05-29T11:12:34Z</time>
      </trkpt>
      <trkpt lat="43.61091" lon="7.04716">
        <ele>207</ele>
        <time>2009-05-29T11:12:35Z</time>
      </trkpt>
      <trkpt lat="43.61091" lon="7.04723">
        <ele>207</ele>
        <time>2009-05-29T11:12:42Z</time>
      </trkpt>
      <trkpt lat="43.61093" lon="7.0473">
        <ele>206</ele>
        <time>2009-05-29T11:12:46Z</time>
      </trkpt>
      <trkpt lat="43.61099" lon="7.04739">
        <ele>206</ele>
        <time>2009-05-29T11:13:00Z</time>
      </trkpt>
      <trkpt lat="43.61096" lon="7.04746">
        <ele>206</ele>
        <time>2009-05-29T11:13:02Z</time>
      </trkpt>
      <trkpt lat="43.61106" lon="7.04756">
        <ele>206</ele>
        <time>2009-05-29T11:13:09Z</time>
      </trkpt>
      <trkpt lat="43.61114" lon="7.04761">
        <ele>204</ele>
        <time>2009-05-29T11:13:13Z</time>
      </trkpt>
      <trkpt lat="43.61118" lon="7.04763">
        <ele>204</ele>
        <time>2009-05-29T11:13:16Z</time>
      </trkpt>
      <trkpt lat="43.61124" lon="7.04763">
        <ele>205</ele>
        <time>2009-05-29T11:13:17Z</time>
      </trkpt>
      <trkpt lat="43.61133" lon="7.04767">
        <ele>205</ele>
        <time>2009-05-29T11:13:21Z</time>
      </trkpt>
      <trkpt lat="43.61164" lon="7.04764">
        <ele>204</ele>
        <time>2009-05-29T11:13:31Z</time>
      </trkpt>
      <trkpt lat="43.61169" lon="7.0476">
        <ele>204</ele>
        <time>2009-05-29T11:13:32Z</time>
      </trkpt>
      <trkpt lat="43.61178" lon="7.04751">
        <ele>205</ele>
        <time>2009-05-29T11:13:36Z</time>
      </trkpt>
      <trkpt lat="43.61182" lon="7.04746">
        <ele>205</ele>
        <time>2009-05-29T11:13:40Z</time>
      </trkpt>
      <trkpt lat="43.61189" lon="7.04741">
        <ele>204</ele>
        <time>2009-05-29T11:13:44Z</time>
      </trkpt>
      <trkpt lat="43.61195" lon="7.04732">
        <ele>203</ele>
        <time>2009-05-29T11:13:48Z</time>
      </trkpt>
      <trkpt lat="43.6121" lon="7.04722">
        <ele>203</ele>
        <time>2009-05-29T11:13:58Z</time>
      </trkpt>
      <trkpt lat="43.61216" lon="7.04722">
        <ele>203</ele>
        <time>2009-05-29T11:14:00Z</time>
      </trkpt>
      <trkpt lat="43.61223" lon="7.04722">
        <ele>203</ele>
        <time>2009-05-29T11:14:03Z</time>
      </trkpt>
      <trkpt lat="43.61231" lon="7.04718">
        <ele>203</ele>
        <time>2009-05-29T11:14:04Z</time>
      </trkpt>
      <trkpt lat="43.61236" lon="7.04717">
        <ele>204</ele>
        <time>2009-05-29T11:14:05Z</time>
      </trkpt>
      <trkpt lat="43.61244" lon="7.04712">
        <ele>204</ele>
        <time>2009-05-29T11:14:10Z</time>
      </trkpt>
      <trkpt lat="43.61249" lon="7.04709">
        <ele>204</ele>
        <time>2009-05-29T11:14:13Z</time>
      </trkpt>
      <trkpt lat="43.61255" lon="7.047">
        <ele>204</ele>
        <time>2009-05-29T11:14:17Z</time>
      </trkpt>
      <trkpt lat="43.6126" lon="7.04692">
        <ele>205</ele>
        <time>2009-05-29T11:14:18Z</time>
      </trkpt>
      <trkpt lat="43.61264" lon="7.04686">
        <ele>205</ele>
        <time>2009-05-29T11:14:21Z</time>
      </trkpt>
      <trkpt lat="43.61264" lon="7.04686">
        <ele>205</ele>
        <time>2009-05-29T11:14:21Z</time>
      </trkpt>
      <trkpt lat="43.61265" lon="7.04683">
        <ele>206</ele>
        <time>2009-05-29T11:14:23Z</time>
      </trkpt>
      <trkpt lat="43.61276" lon="7.04657">
        <ele>206</ele>
        <time>2009-05-29T11:14:32Z</time>
      </trkpt>
      <trkpt lat="43.61279" lon="7.04648">
        <ele>206</ele>
        <time>2009-05-29T11:14:34Z</time>
      </trkpt>
      <trkpt lat="43.61283" lon="7.04639">
        <ele>206</ele>
        <time>2009-05-29T11:14:37Z</time>
      </trkpt>
      <trkpt lat="43.61285" lon="7.04629">
        <ele>205</ele>
        <time>2009-05-29T11:14:38Z</time>
      </trkpt>
      <trkpt lat="43.61285" lon="7.04622">
        <ele>205</ele>
        <time>2009-05-29T11:14:39Z</time>
      </trkpt>
      <trkpt lat="43.61286" lon="7.04609">
        <ele>205</ele>
        <time>2009-05-29T11:14:42Z</time>
      </trkpt>
      <trkpt lat="43.61292" lon="7.04598">
        <ele>204</ele>
        <time>2009-05-29T11:14:43Z</time>
      </trkpt>
      <trkpt lat="43.61294" lon="7.0459">
        <ele>204</ele>
        <time>2009-05-29T11:14:44Z</time>
      </trkpt>
      <trkpt lat="43.61298" lon="7.04575">
        <ele>204</ele>
        <time>2009-05-29T11:14:46Z</time>
      </trkpt>
      <trkpt lat="43.61302" lon="7.04562">
        <ele>203</ele>
        <time>2009-05-29T11:14:48Z</time>
      </trkpt>
      <trkpt lat="43.61319" lon="7.04514">
        <ele>201</ele>
        <time>2009-05-29T11:14:58Z</time>
      </trkpt>
      <trkpt lat="43.61321" lon="7.04507">
        <ele>200</ele>
        <time>2009-05-29T11:14:59Z</time>
      </trkpt>
      <trkpt lat="43.61322" lon="7.04499">
        <ele>200</ele>
        <time>2009-05-29T11:15:00Z</time>
      </trkpt>
      <trkpt lat="43.61328" lon="7.04488">
        <ele>200</ele>
        <time>2009-05-29T11:15:03Z</time>
      </trkpt>
      <trkpt lat="43.61329" lon="7.04475">
        <ele>199</ele>
        <time>2009-05-29T11:15:04Z</time>
      </trkpt>
      <trkpt lat="43.61332" lon="7.04466">
        <ele>199</ele>
        <time>2009-05-29T11:15:05Z</time>
      </trkpt>
      <trkpt lat="43.61337" lon="7.04441">
        <ele>196</ele>
        <time>2009-05-29T11:15:10Z</time>
      </trkpt>
      <trkpt lat="43.61342" lon="7.04432">
        <ele>196</ele>
        <time>2009-05-29T11:15:13Z</time>
      </trkpt>
      <trkpt lat="43.61342" lon="7.04421">
        <ele>196</ele>
        <time>2009-05-29T11:15:15Z</time>
      </trkpt>
      <trkpt lat="43.61346" lon="7.04414">
        <ele>196</ele>
        <time>2009-05-29T11:15:17Z</time>
      </trkpt>
      <trkpt lat="43.6135" lon="7.04406">
        <ele>195</ele>
        <time>2009-05-29T11:15:19Z</time>
      </trkpt>
      <trkpt lat="43.61353" lon="7.044">
        <ele>195</ele>
        <time>2009-05-29T11:15:22Z</time>
      </trkpt>
      <trkpt lat="43.61358" lon="7.04385">
        <ele>195</ele>
        <time>2009-05-29T11:15:23Z</time>
      </trkpt>
      <trkpt lat="43.6137" lon="7.04359">
        <ele>194</ele>
        <time>2009-05-29T11:15:33Z</time>
      </trkpt>
      <trkpt lat="43.61375" lon="7.04351">
        <ele>193</ele>
        <time>2009-05-29T11:15:35Z</time>
      </trkpt>
      <trkpt lat="43.6138" lon="7.04341">
        <ele>193</ele>
        <time>2009-05-29T11:15:38Z</time>
      </trkpt>
      <trkpt lat="43.61382" lon="7.04329">
        <ele>193</ele>
        <time>2009-05-29T11:15:40Z</time>
      </trkpt>
      <trkpt lat="43.61383" lon="7.04318">
        <ele>193</ele>
        <time>2009-05-29T11:15:43Z</time>
      </trkpt>
      <trkpt lat="43.61387" lon="7.04307">
        <ele>193</ele>
        <time>2009-05-29T11:15:45Z</time>
      </trkpt>
      <trkpt lat="43.61394" lon="7.04299">
        <ele>192</ele>
        <time>2009-05-29T11:15:48Z</time>
      </trkpt>
      <trkpt lat="43.61411" lon="7.04289">
        <ele>191</ele>
        <time>2009-05-29T11:15:58Z</time>
      </trkpt>
      <trkpt lat="43.61416" lon="7.04287">
        <ele>190</ele>
        <time>2009-05-29T11:16:03Z</time>
      </trkpt>
      <trkpt lat="43.61416" lon="7.04287">
        <ele>190</ele>
        <time>2009-05-29T11:16:03Z</time>
      </trkpt>
      <trkpt lat="43.6142" lon="7.04287">
        <ele>189</ele>
        <time>2009-05-29T11:16:14Z</time>
      </trkpt>
      <trkpt lat="43.61422" lon="7.04286">
        <ele>188</ele>
        <time>2009-05-29T11:16:15Z</time>
      </trkpt>
      <trkpt lat="43.61426" lon="7.04284">
        <ele>186</ele>
        <time>2009-05-29T11:16:32Z</time>
      </trkpt>
      <trkpt lat="43.61421" lon="7.04287">
        <ele>184</ele>
        <time>2009-05-29T11:16:38Z</time>
      </trkpt>
      <trkpt lat="43.61418" lon="7.0429">
        <ele>184</ele>
        <time>2009-05-29T11:16:39Z</time>
      </trkpt>
      <trkpt lat="43.61417" lon="7.04286">
        <ele>183</ele>
        <time>2009-05-29T11:17:05Z</time>
      </trkpt>
      <trkpt lat="43.61421" lon="7.04284">
        <ele>182</ele>
        <time>2009-05-29T11:17:10Z</time>
      </trkpt>
      <trkpt lat="43.61422" lon="7.04283">
        <ele>183</ele>
        <time>2009-05-29T11:17:15Z</time>
      </trkpt>
      <trkpt lat="43.61425" lon="7.04281">
        <ele>181</ele>
        <time>2009-05-29T11:17:38Z</time>
      </trkpt>
      <trkpt lat="43.61426" lon="7.0428">
        <ele>181</ele>
        <time>2009-05-29T11:17:39Z</time>
      </trkpt>
      <trkpt lat="43.61426" lon="7.0428">
        <ele>181</ele>
        <time>2009-05-29T11:17:39Z</time>
      </trkpt>
      <trkpt lat="43.61429" lon="7.04278">
        <ele>180</ele>
        <time>2009-05-29T11:17:50Z</time>
      </trkpt>
      <trkpt lat="43.6143" lon="7.04276">
        <ele>181</ele>
        <time>2009-05-29T11:17:58Z</time>
      </trkpt>
      <trkpt lat="43.61434" lon="7.04272">
        <ele>180</ele>
        <time>2009-05-29T11:18:01Z</time>
      </trkpt>
      <trkpt lat="43.61477" lon="7.04219">
        <ele>180</ele>
        <time>2009-05-29T11:18:04Z</time>
      </trkpt>
      <trkpt lat="43.61488" lon="7.04199">
        <ele>179</ele>
        <time>2009-05-29T11:18:09Z</time>
      </trkpt>
      <trkpt lat="43.61502" lon="7.04181">
        <ele>179</ele>
        <time>2009-05-29T11:18:12Z</time>
      </trkpt>
      <trkpt lat="43.6151" lon="7.04168">
        <ele>179</ele>
        <time>2009-05-29T11:18:16Z</time>
      </trkpt>
      <trkpt lat="43.61515" lon="7.04159">
        <ele>179</ele>
        <time>2009-05-29T11:18:20Z</time>
      </trkpt>
      <trkpt lat="43.6152" lon="7.04159">
        <ele>179</ele>
        <time>2009-05-29T11:18:24Z</time>
      </trkpt>
      <trkpt lat="43.61537" lon="7.04154">
        <ele>181</ele>
        <time>2009-05-29T11:18:33Z</time>
      </trkpt>
      <trkpt lat="43.61543" lon="7.04156">
        <ele>181</ele>
        <time>2009-05-29T11:18:38Z</time>
      </trkpt>
      <trkpt lat="43.61544" lon="7.04163">
        <ele>181</ele>
        <time>2009-05-29T11:18:40Z</time>
      </trkpt>
      <trkpt lat="43.61551" lon="7.04161">
        <ele>183</ele>
        <time>2009-05-29T11:18:57Z</time>
      </trkpt>
      <trkpt lat="43.61551" lon="7.04165">
        <ele>182</ele>
        <time>2009-05-29T11:19:16Z</time>
      </trkpt>
      <trkpt lat="43.61555" lon="7.04166">
        <ele>178</ele>
        <time>2009-05-29T11:20:20Z</time>
      </trkpt>
      <trkpt lat="43.61556" lon="7.04165">
        <ele>178</ele>
        <time>2009-05-29T11:20:23Z</time>
      </trkpt>
      <trkpt lat="43.61556" lon="7.04165">
        <ele>178</ele>
        <time>2009-05-29T11:20:23Z</time>
      </trkpt>
      <trkpt lat="43.61559" lon="7.04161">
        <ele>176</ele>
        <time>2009-05-29T11:22:03Z</time>
      </trkpt>
      <trkpt lat="43.61559" lon="7.04161">
        <ele>176</ele>
        <time>2009-05-29T11:22:09Z</time>
      </trkpt>
      <trkpt lat="43.61559" lon="7.0416">
        <ele>176</ele>
        <time>2009-05-29T11:22:12Z</time>
      </trkpt>
      <trkpt lat="43.61562" lon="7.04156">
        <ele>176</ele>
        <time>2009-05-29T11:24:00Z</time>
      </trkpt>
      <trkpt lat="43.61563" lon="7.04156">
        <ele>176</ele>
        <time>2009-05-29T11:24:01Z</time>
      </trkpt>
      <trkpt lat="43.61563" lon="7.04156">
        <ele>176</ele>
        <time>2009-05-29T11:24:01Z</time>
      </trkpt>
      <trkpt lat="43.61563" lon="7.0415">
        <ele>180</ele>
        <time>2009-05-29T11:32:59Z</time>
      </trkpt>
      <trkpt lat="43.61563" lon="7.0415">
        <ele>180</ele>
        <time>2009-05-29T11:33:02Z</time>
      </trkpt>
      <trkpt lat="43.61563" lon="7.0415">
        <ele>180</ele>
        <time>2009-05-29T11:33:04Z</time>
      </trkpt>
      <trkpt lat="43.61564" lon="7.0415">
        <ele>181</ele>
        <time>2009-05-29T11:33:33Z</time>
      </trkpt>
      <trkpt lat="43.61601" lon="7.04157">
        <ele>184</ele>
        <time>2009-05-29T11:33:34Z</time>
      </trkpt>
      <trkpt lat="43.61611" lon="7.04165">
        <ele>183</ele>
        <time>2009-05-29T11:33:37Z</time>
      </trkpt>
      <trkpt lat="43.61617" lon="7.04168">
        <ele>181</ele>
        <time>2009-05-29T11:33:38Z</time>
      </trkpt>
      <trkpt lat="43.61625" lon="7.04183">
        <ele>181</ele>
        <time>2009-05-29T11:33:41Z</time>
      </trkpt>
      <trkpt lat="43.61629" lon="7.04189">
        <ele>180</ele>
        <time>2009-05-29T11:33:42Z</time>
      </trkpt>
      <trkpt lat="43.61636" lon="7.04204">
        <ele>179</ele>
        <time>2009-05-29T11:33:44Z</time>
      </trkpt>
      <trkpt lat="43.61637" lon="7.04211">
        <ele>178</ele>
        <time>2009-05-29T11:33:45Z</time>
      </trkpt>
      <trkpt lat="43.61643" lon="7.04229">
        <ele>176</ele>
        <time>2009-05-29T11:33:48Z</time>
      </trkpt>
      <trkpt lat="43.61643" lon="7.04237">
        <ele>176</ele>
        <time>2009-05-29T11:33:49Z</time>
      </trkpt>
      <trkpt lat="43.6165" lon="7.04286">
        <ele>176</ele>
        <time>2009-05-29T11:33:58Z</time>
      </trkpt>
      <trkpt lat="43.61647" lon="7.04296">
        <ele>176</ele>
        <time>2009-05-29T11:33:59Z</time>
      </trkpt>
      <trkpt lat="43.61646" lon="7.04311">
        <ele>177</ele>
        <time>2009-05-29T11:34:02Z</time>
      </trkpt>
      <trkpt lat="43.61644" lon="7.04357">
        <ele>176</ele>
        <time>2009-05-29T11:34:09Z</time>
      </trkpt>
      <trkpt lat="43.61652" lon="7.04379">
        <ele>177</ele>
        <time>2009-05-29T11:34:12Z</time>
      </trkpt>
      <trkpt lat="43.61655" lon="7.04389">
        <ele>177</ele>
        <time>2009-05-29T11:34:13Z</time>
      </trkpt>
      <trkpt lat="43.61662" lon="7.04395">
        <ele>177</ele>
        <time>2009-05-29T11:34:14Z</time>
      </trkpt>
      <trkpt lat="43.6167" lon="7.04401">
        <ele>177</ele>
        <time>2009-05-29T11:34:15Z</time>
      </trkpt>
      <trkpt lat="43.61672" lon="7.0441">
        <ele>178</ele>
        <time>2009-05-29T11:34:16Z</time>
      </trkpt>
      <trkpt lat="43.61678" lon="7.0444">
        <ele>177</ele>
        <time>2009-05-29T11:34:19Z</time>
      </trkpt>
      <trkpt lat="43.6168" lon="7.04451">
        <ele>177</ele>
        <time>2009-05-29T11:34:20Z</time>
      </trkpt>
      <trkpt lat="43.61682" lon="7.0446">
        <ele>177</ele>
        <time>2009-05-29T11:34:21Z</time>
      </trkpt>
      <trkpt lat="43.61684" lon="7.0447">
        <ele>177</ele>
        <time>2009-05-29T11:34:22Z</time>
      </trkpt>
      <trkpt lat="43.61689" lon="7.04478">
        <ele>177</ele>
        <time>2009-05-29T11:34:23Z</time>
      </trkpt>
      <trkpt lat="43.61714" lon="7.04533">
        <ele>178</ele>
        <time>2009-05-29T11:34:31Z</time>
      </trkpt>
      <trkpt lat="43.61723" lon="7.04535">
        <ele>178</ele>
        <time>2009-05-29T11:34:32Z</time>
      </trkpt>
      <trkpt lat="43.61726" lon="7.04543">
        <ele>177</ele>
        <time>2009-05-29T11:34:33Z</time>
      </trkpt>
      <trkpt lat="43.61729" lon="7.04551">
        <ele>177</ele>
        <time>2009-05-29T11:34:34Z</time>
      </trkpt>
      <trkpt lat="43.61733" lon="7.04559">
        <ele>177</ele>
        <time>2009-05-29T11:34:35Z</time>
      </trkpt>
      <trkpt lat="43.61739" lon="7.04565">
        <ele>177</ele>
        <time>2009-05-29T11:34:36Z</time>
      </trkpt>
      <trkpt lat="43.61745" lon="7.0457">
        <ele>177</ele>
        <time>2009-05-29T11:34:37Z</time>
      </trkpt>
      <trkpt lat="43.6175" lon="7.04577">
        <ele>177</ele>
        <time>2009-05-29T11:34:38Z</time>
      </trkpt>
      <trkpt lat="43.61753" lon="7.04586">
        <ele>177</ele>
        <time>2009-05-29T11:34:39Z</time>
      </trkpt>
      <trkpt lat="43.61768" lon="7.04604">
        <ele>177</ele>
        <time>2009-05-29T11:34:42Z</time>
      </trkpt>
      <trkpt lat="43.61775" lon="7.04608">
        <ele>178</ele>
        <time>2009-05-29T11:34:43Z</time>
      </trkpt>
      <trkpt lat="43.6178" lon="7.04613">
        <ele>177</ele>
        <time>2009-05-29T11:34:44Z</time>
      </trkpt>
      <trkpt lat="43.61784" lon="7.0462">
        <ele>177</ele>
        <time>2009-05-29T11:34:45Z</time>
      </trkpt>
      <trkpt lat="43.61785" lon="7.04629">
        <ele>177</ele>
        <time>2009-05-29T11:34:46Z</time>
      </trkpt>
      <trkpt lat="43.6179" lon="7.04632">
        <ele>177</ele>
        <time>2009-05-29T11:34:47Z</time>
      </trkpt>
      <trkpt lat="43.61795" lon="7.04636">
        <ele>178</ele>
        <time>2009-05-29T11:34:48Z</time>
      </trkpt>
      <trkpt lat="43.61792" lon="7.04649">
        <ele>176</ele>
        <time>2009-05-29T11:34:49Z</time>
      </trkpt>
      <trkpt lat="43.61809" lon="7.04702">
        <ele>176</ele>
        <time>2009-05-29T11:34:57Z</time>
      </trkpt>
      <trkpt lat="43.61798" lon="7.04723">
        <ele>175</ele>
        <time>2009-05-29T11:34:58Z</time>
      </trkpt>
      <trkpt lat="43.61797" lon="7.04735">
        <ele>175</ele>
        <time>2009-05-29T11:34:59Z</time>
      </trkpt>
      <trkpt lat="43.61796" lon="7.04745">
        <ele>175</ele>
        <time>2009-05-29T11:35:00Z</time>
      </trkpt>
      <trkpt lat="43.61802" lon="7.04765">
        <ele>174</ele>
        <time>2009-05-29T11:35:03Z</time>
      </trkpt>
      <trkpt lat="43.618" lon="7.04775">
        <ele>174</ele>
        <time>2009-05-29T11:35:04Z</time>
      </trkpt>
      <trkpt lat="43.61799" lon="7.04783">
        <ele>173</ele>
        <time>2009-05-29T11:35:05Z</time>
      </trkpt>
      <trkpt lat="43.61798" lon="7.04814">
        <ele>173</ele>
        <time>2009-05-29T11:35:10Z</time>
      </trkpt>
      <trkpt lat="43.61795" lon="7.04827">
        <ele>173</ele>
        <time>2009-05-29T11:35:13Z</time>
      </trkpt>
      <trkpt lat="43.61803" lon="7.04829">
        <ele>174</ele>
        <time>2009-05-29T11:35:19Z</time>
      </trkpt>
      <trkpt lat="43.6181" lon="7.04824">
        <ele>174</ele>
        <time>2009-05-29T11:35:20Z</time>
      </trkpt>
      <trkpt lat="43.6183" lon="7.04832">
        <ele>174</ele>
        <time>2009-05-29T11:35:28Z</time>
      </trkpt>
      <trkpt lat="43.61839" lon="7.0483">
        <ele>174</ele>
        <time>2009-05-29T11:35:29Z</time>
      </trkpt>
      <trkpt lat="43.61849" lon="7.04828">
        <ele>174</ele>
        <time>2009-05-29T11:35:30Z</time>
      </trkpt>
      <trkpt lat="43.61861" lon="7.04825">
        <ele>173</ele>
        <time>2009-05-29T11:35:31Z</time>
      </trkpt>
      <trkpt lat="43.61883" lon="7.04828">
        <ele>172</ele>
        <time>2009-05-29T11:35:34Z</time>
      </trkpt>
      <trkpt lat="43.61892" lon="7.04828">
        <ele>171</ele>
        <time>2009-05-29T11:35:35Z</time>
      </trkpt>
      <trkpt lat="43.61909" lon="7.04842">
        <ele>171</ele>
        <time>2009-05-29T11:35:38Z</time>
      </trkpt>
      <trkpt lat="43.61914" lon="7.04848">
        <ele>171</ele>
        <time>2009-05-29T11:35:39Z</time>
      </trkpt>
      <trkpt lat="43.61928" lon="7.04865">
        <ele>169</ele>
        <time>2009-05-29T11:35:42Z</time>
      </trkpt>
      <trkpt lat="43.61933" lon="7.04871">
        <ele>169</ele>
        <time>2009-05-29T11:35:43Z</time>
      </trkpt>
      <trkpt lat="43.61963" lon="7.04891">
        <ele>168</ele>
        <time>2009-05-29T11:35:51Z</time>
      </trkpt>
      <trkpt lat="43.61971" lon="7.04886">
        <ele>168</ele>
        <time>2009-05-29T11:35:53Z</time>
      </trkpt>
      <trkpt lat="43.61984" lon="7.04886">
        <ele>168</ele>
        <time>2009-05-29T11:35:57Z</time>
      </trkpt>
      <trkpt lat="43.6199" lon="7.04886">
        <ele>168</ele>
        <time>2009-05-29T11:35:59Z</time>
      </trkpt>
      <trkpt lat="43.62" lon="7.04883">
        <ele>168</ele>
        <time>2009-05-29T11:36:02Z</time>
      </trkpt>
      <trkpt lat="43.62023" lon="7.04902">
        <ele>167</ele>
        <time>2009-05-29T11:36:08Z</time>
      </trkpt>
      <trkpt lat="43.62039" lon="7.04916">
        <ele>167</ele>
        <time>2009-05-29T11:36:11Z</time>
      </trkpt>
      <trkpt lat="43.62045" lon="7.04922">
        <ele>167</ele>
        <time>2009-05-29T11:36:12Z</time>
      </trkpt>
      <trkpt lat="43.62059" lon="7.04938">
        <ele>167</ele>
        <time>2009-05-29T11:36:15Z</time>
      </trkpt>
      <trkpt lat="43.62062" lon="7.04946">
        <ele>166</ele>
        <time>2009-05-29T11:36:16Z</time>
      </trkpt>
      <trkpt lat="43.62072" lon="7.04962">
        <ele>165</ele>
        <time>2009-05-29T11:36:19Z</time>
      </trkpt>
      <trkpt lat="43.62075" lon="7.04965">
        <ele>165</ele>
        <time>2009-05-29T11:36:20Z</time>
      </trkpt>
      <trkpt lat="43.62078" lon="7.04975">
        <ele>166</ele>
        <time>2009-05-29T11:36:22Z</time>
      </trkpt>
      <trkpt lat="43.62071" lon="7.04997">
        <ele>166</ele>
        <time>2009-05-29T11:36:32Z</time>
      </trkpt>
      <trkpt lat="43.62069" lon="7.05004">
        <ele>166</ele>
        <time>2009-05-29T11:36:34Z</time>
      </trkpt>
      <trkpt lat="43.6207" lon="7.05013">
        <ele>165</ele>
        <time>2009-05-29T11:36:37Z</time>
      </trkpt>
      <trkpt lat="43.62071" lon="7.05023">
        <ele>165</ele>
        <time>2009-05-29T11:36:39Z</time>
      </trkpt>
      <trkpt lat="43.62072" lon="7.05044">
        <ele>164</ele>
        <time>2009-05-29T11:36:42Z</time>
      </trkpt>
      <trkpt lat="43.62072" lon="7.05053">
        <ele>164</ele>
        <time>2009-05-29T11:36:43Z</time>
      </trkpt>
      <trkpt lat="43.62066" lon="7.05066">
        <ele>164</ele>
        <time>2009-05-29T11:36:44Z</time>
      </trkpt>
      <trkpt lat="43.62063" lon="7.05093">
        <ele>163</ele>
        <time>2009-05-29T11:36:47Z</time>
      </trkpt>
      <trkpt lat="43.62059" lon="7.05105">
        <ele>162</ele>
        <time>2009-05-29T11:36:48Z</time>
      </trkpt>
      <trkpt lat="43.62055" lon="7.05118">
        <ele>162</ele>
        <time>2009-05-29T11:36:49Z</time>
      </trkpt>
      <trkpt lat="43.62045" lon="7.05185">
        <ele>161</ele>
        <time>2009-05-29T11:36:57Z</time>
      </trkpt>
      <trkpt lat="43.62046" lon="7.05192">
        <ele>161</ele>
        <time>2009-05-29T11:36:58Z</time>
      </trkpt>
      <trkpt lat="43.62046" lon="7.05199">
        <ele>161</ele>
        <time>2009-05-29T11:36:59Z</time>
      </trkpt>
      <trkpt lat="43.62044" lon="7.05209">
        <ele>161</ele>
        <time>2009-05-29T11:37:00Z</time>
      </trkpt>
      <trkpt lat="43.6204" lon="7.05238">
        <ele>160</ele>
        <time>2009-05-29T11:37:03Z</time>
      </trkpt>
      <trkpt lat="43.6204" lon="7.05244">
        <ele>159</ele>
        <time>2009-05-29T11:37:04Z</time>
      </trkpt>
      <trkpt lat="43.62038" lon="7.05304">
        <ele>159</ele>
        <time>2009-05-29T11:37:10Z</time>
      </trkpt>
      <trkpt lat="43.62033" lon="7.05324">
        <ele>158</ele>
        <time>2009-05-29T11:37:14Z</time>
      </trkpt>
      <trkpt lat="43.62034" lon="7.05334">
        <ele>158</ele>
        <time>2009-05-29T11:37:16Z</time>
      </trkpt>
      <trkpt lat="43.62036" lon="7.05352">
        <ele>158</ele>
        <time>2009-05-29T11:37:20Z</time>
      </trkpt>
      <trkpt lat="43.6204" lon="7.05359">
        <ele>158</ele>
        <time>2009-05-29T11:37:22Z</time>
      </trkpt>
      <trkpt lat="43.62048" lon="7.05393">
        <ele>157</ele>
        <time>2009-05-29T11:37:30Z</time>
      </trkpt>
      <trkpt lat="43.62052" lon="7.05398">
        <ele>157</ele>
        <time>2009-05-29T11:37:31Z</time>
      </trkpt>
      <trkpt lat="43.62056" lon="7.05405">
        <ele>157</ele>
        <time>2009-05-29T11:37:32Z</time>
      </trkpt>
      <trkpt lat="43.62058" lon="7.05411">
        <ele>157</ele>
        <time>2009-05-29T11:37:33Z</time>
      </trkpt>
      <trkpt lat="43.62066" lon="7.05424">
        <ele>156</ele>
        <time>2009-05-29T11:37:36Z</time>
      </trkpt>
      <trkpt lat="43.62072" lon="7.05429">
        <ele>156</ele>
        <time>2009-05-29T11:37:38Z</time>
      </trkpt>
      <trkpt lat="43.62083" lon="7.05429">
        <ele>157</ele>
        <time>2009-05-29T11:37:42Z</time>
      </trkpt>
      <trkpt lat="43.62081" lon="7.0543">
        <ele>157</ele>
        <time>2009-05-29T11:37:43Z</time>
      </trkpt>
      <trkpt lat="43.62085" lon="7.05429">
        <ele>157</ele>
        <time>2009-05-29T11:37:45Z</time>
      </trkpt>
      <trkpt lat="43.6211" lon="7.05445">
        <ele>157</ele>
        <time>2009-05-29T11:37:54Z</time>
      </trkpt>
      <trkpt lat="43.6211" lon="7.05452">
        <ele>157</ele>
        <time>2009-05-29T11:37:55Z</time>
      </trkpt>
      <trkpt lat="43.62115" lon="7.05453">
        <ele>157</ele>
        <time>2009-05-29T11:37:56Z</time>
      </trkpt>
      <trkpt lat="43.62121" lon="7.05462">
        <ele>157</ele>
        <time>2009-05-29T11:37:59Z</time>
      </trkpt>
      <trkpt lat="43.62127" lon="7.05463">
        <ele>156</ele>
        <time>2009-05-29T11:38:00Z</time>
      </trkpt>
      <trkpt lat="43.62136" lon="7.05479">
        <ele>156</ele>
        <time>2009-05-29T11:38:04Z</time>
      </trkpt>
      <trkpt lat="43.62147" lon="7.05511">
        <ele>156</ele>
        <time>2009-05-29T11:38:10Z</time>
      </trkpt>
      <trkpt lat="43.62153" lon="7.05525">
        <ele>156</ele>
        <time>2009-05-29T11:38:13Z</time>
      </trkpt>
      <trkpt lat="43.62158" lon="7.05528">
        <ele>156</ele>
        <time>2009-05-29T11:38:14Z</time>
      </trkpt>
      <trkpt lat="43.62162" lon="7.05533">
        <ele>156</ele>
        <time>2009-05-29T11:38:15Z</time>
      </trkpt>
      <trkpt lat="43.62169" lon="7.05548">
        <ele>156</ele>
        <time>2009-05-29T11:38:18Z</time>
      </trkpt>
      <trkpt lat="43.62174" lon="7.05551">
        <ele>156</ele>
        <time>2009-05-29T11:38:19Z</time>
      </trkpt>
      <trkpt lat="43.6218" lon="7.05552">
        <ele>156</ele>
        <time>2009-05-29T11:38:20Z</time>
      </trkpt>
      <trkpt lat="43.62188" lon="7.05566">
        <ele>156</ele>
        <time>2009-05-29T11:38:23Z</time>
      </trkpt>
      <trkpt lat="43.62193" lon="7.05568">
        <ele>156</ele>
        <time>2009-05-29T11:38:24Z</time>
      </trkpt>
      <trkpt lat="43.62221" lon="7.05569">
        <ele>156</ele>
        <time>2009-05-29T11:38:34Z</time>
      </trkpt>
      <trkpt lat="43.62224" lon="7.05564">
        <ele>156</ele>
        <time>2009-05-29T11:38:35Z</time>
      </trkpt>
      <trkpt lat="43.6223" lon="7.0556">
        <ele>156</ele>
        <time>2009-05-29T11:38:39Z</time>
      </trkpt>
      <trkpt lat="43.6223" lon="7.05559">
        <ele>156</ele>
        <time>2009-05-29T11:38:40Z</time>
      </trkpt>
      <trkpt lat="43.62233" lon="7.05557">
        <ele>156</ele>
        <time>2009-05-29T11:38:44Z</time>
      </trkpt>
      <trkpt lat="43.62235" lon="7.05558">
        <ele>156</ele>
        <time>2009-05-29T11:38:45Z</time>
      </trkpt>
      <trkpt lat="43.6224" lon="7.0556">
        <ele>157</ele>
        <time>2009-05-29T11:38:49Z</time>
      </trkpt>
      <trkpt lat="43.62241" lon="7.05568">
        <ele>157</ele>
        <time>2009-05-29T11:38:51Z</time>
      </trkpt>
      <trkpt lat="43.62259" lon="7.05579">
        <ele>157</ele>
        <time>2009-05-29T11:39:00Z</time>
      </trkpt>
      <trkpt lat="43.62264" lon="7.05576">
        <ele>157</ele>
        <time>2009-05-29T11:39:02Z</time>
      </trkpt>
      <trkpt lat="43.62277" lon="7.05561">
        <ele>157</ele>
        <time>2009-05-29T11:39:10Z</time>
      </trkpt>
      <trkpt lat="43.62284" lon="7.05553">
        <ele>157</ele>
        <time>2009-05-29T11:39:12Z</time>
      </trkpt>
      <trkpt lat="43.62288" lon="7.05548">
        <ele>157</ele>
        <time>2009-05-29T11:39:15Z</time>
      </trkpt>
      <trkpt lat="43.62293" lon="7.05545">
        <ele>157</ele>
        <time>2009-05-29T11:39:16Z</time>
      </trkpt>
      <trkpt lat="43.62302" lon="7.05538">
        <ele>157</ele>
        <time>2009-05-29T11:39:20Z</time>
      </trkpt>
      <trkpt lat="43.62308" lon="7.05534">
        <ele>158</ele>
        <time>2009-05-29T11:39:21Z</time>
      </trkpt>
      <trkpt lat="43.62335" lon="7.05522">
        <ele>159</ele>
        <time>2009-05-29T11:39:31Z</time>
      </trkpt>
      <trkpt lat="43.6234" lon="7.05518">
        <ele>159</ele>
        <time>2009-05-29T11:39:33Z</time>
      </trkpt>
      <trkpt lat="43.62347" lon="7.05513">
        <ele>159</ele>
        <time>2009-05-29T11:39:36Z</time>
      </trkpt>
      <trkpt lat="43.62355" lon="7.05513">
        <ele>160</ele>
        <time>2009-05-29T11:39:41Z</time>
      </trkpt>
      <trkpt lat="43.6236" lon="7.0551">
        <ele>160</ele>
        <time>2009-05-29T11:39:42Z</time>
      </trkpt>
      <trkpt lat="43.62369" lon="7.05506">
        <ele>160</ele>
        <time>2009-05-29T11:39:46Z</time>
      </trkpt>
      <trkpt lat="43.62375" lon="7.05502">
        <ele>160</ele>
        <time>2009-05-29T11:39:48Z</time>
      </trkpt>
      <trkpt lat="43.6239" lon="7.05508">
        <ele>162</ele>
        <time>2009-05-29T11:39:57Z</time>
      </trkpt>
      <trkpt lat="43.62391" lon="7.05515">
        <ele>163</ele>
        <time>2009-05-29T11:40:02Z</time>
      </trkpt>
      <trkpt lat="43.62406" lon="7.05532">
        <ele>163</ele>
        <time>2009-05-29T11:40:10Z</time>
      </trkpt>
      <trkpt lat="43.62417" lon="7.05542">
        <ele>163</ele>
        <time>2009-05-29T11:40:14Z</time>
      </trkpt>
      <trkpt lat="43.62428" lon="7.05557">
        <ele>164</ele>
        <time>2009-05-29T11:40:18Z</time>
      </trkpt>
      <trkpt lat="43.62442" lon="7.05568">
        <ele>164</ele>
        <time>2009-05-29T11:40:22Z</time>
      </trkpt>
      <trkpt lat="43.62452" lon="7.05589">
        <ele>164</ele>
        <time>2009-05-29T11:40:31Z</time>
      </trkpt>
      <trkpt lat="43.62448" lon="7.05591">
        <ele>164</ele>
        <time>2009-05-29T11:40:32Z</time>
      </trkpt>
      <trkpt lat="43.62447" lon="7.05601">
        <ele>164</ele>
        <time>2009-05-29T11:40:36Z</time>
      </trkpt>
      <trkpt lat="43.62445" lon="7.05608">
        <ele>164</ele>
        <time>2009-05-29T11:40:37Z</time>
      </trkpt>
      <trkpt lat="43.62445" lon="7.05622">
        <ele>165</ele>
        <time>2009-05-29T11:40:41Z</time>
      </trkpt>
      <trkpt lat="43.62446" lon="7.05637">
        <ele>165</ele>
        <time>2009-05-29T11:40:45Z</time>
      </trkpt>
      <trkpt lat="43.62448" lon="7.05657">
        <ele>165</ele>
        <time>2009-05-29T11:40:54Z</time>
      </trkpt>
      <trkpt lat="43.6245" lon="7.05665">
        <ele>166</ele>
        <time>2009-05-29T11:40:58Z</time>
      </trkpt>
      <trkpt lat="43.62459" lon="7.05667">
        <ele>166</ele>
        <time>2009-05-29T11:41:02Z</time>
      </trkpt>
      <trkpt lat="43.62475" lon="7.05676">
        <ele>167</ele>
        <time>2009-05-29T11:41:10Z</time>
      </trkpt>
      <trkpt lat="43.62473" lon="7.05683">
        <ele>168</ele>
        <time>2009-05-29T11:41:14Z</time>
      </trkpt>
      <trkpt lat="43.62469" lon="7.05692">
        <ele>168</ele>
        <time>2009-05-29T11:41:18Z</time>
      </trkpt>
      <trkpt lat="43.62467" lon="7.05698">
        <ele>169</ele>
        <time>2009-05-29T11:41:19Z</time>
      </trkpt>
      <trkpt lat="43.62468" lon="7.05709">
        <ele>170</ele>
        <time>2009-05-29T11:41:22Z</time>
      </trkpt>
      <trkpt lat="43.62475" lon="7.05742">
        <ele>171</ele>
        <time>2009-05-29T11:41:31Z</time>
      </trkpt>
      <trkpt lat="43.62475" lon="7.05754">
        <ele>172</ele>
        <time>2009-05-29T11:41:35Z</time>
      </trkpt>
      <trkpt lat="43.62476" lon="7.05763">
        <ele>172</ele>
        <time>2009-05-29T11:41:39Z</time>
      </trkpt>
      <trkpt lat="43.62475" lon="7.05774">
        <ele>173</ele>
        <time>2009-05-29T11:41:43Z</time>
      </trkpt>
      <trkpt lat="43.62476" lon="7.05783">
        <ele>174</ele>
        <time>2009-05-29T11:41:48Z</time>
      </trkpt>
      <trkpt lat="43.62472" lon="7.05787">
        <ele>175</ele>
        <time>2009-05-29T11:41:50Z</time>
      </trkpt>
      <trkpt lat="43.62469" lon="7.05799">
        <ele>175</ele>
        <time>2009-05-29T11:41:58Z</time>
      </trkpt>
      <trkpt lat="43.62465" lon="7.05804">
        <ele>176</ele>
        <time>2009-05-29T11:42:00Z</time>
      </trkpt>
      <trkpt lat="43.6246" lon="7.05812">
        <ele>176</ele>
        <time>2009-05-29T11:42:02Z</time>
      </trkpt>
      <trkpt lat="43.62455" lon="7.05817">
        <ele>177</ele>
        <time>2009-05-29T11:42:04Z</time>
      </trkpt>
      <trkpt lat="43.62445" lon="7.05826">
        <ele>178</ele>
        <time>2009-05-29T11:42:09Z</time>
      </trkpt>
      <trkpt lat="43.6244" lon="7.05831">
        <ele>180</ele>
        <time>2009-05-29T11:42:13Z</time>
      </trkpt>
      <trkpt lat="43.62434" lon="7.05839">
        <ele>181</ele>
        <time>2009-05-29T11:42:18Z</time>
      </trkpt>
      <trkpt lat="43.6243" lon="7.05844">
        <ele>182</ele>
        <time>2009-05-29T11:42:19Z</time>
      </trkpt>
      <trkpt lat="43.62427" lon="7.05851">
        <ele>182</ele>
        <time>2009-05-29T11:42:22Z</time>
      </trkpt>
      <trkpt lat="43.62416" lon="7.05883">
        <ele>183</ele>
        <time>2009-05-29T11:42:31Z</time>
      </trkpt>
      <trkpt lat="43.62413" lon="7.05894">
        <ele>183</ele>
        <time>2009-05-29T11:42:33Z</time>
      </trkpt>
      <trkpt lat="43.62411" lon="7.05906">
        <ele>184</ele>
        <time>2009-05-29T11:42:36Z</time>
      </trkpt>
      <trkpt lat="43.6241" lon="7.05917">
        <ele>185</ele>
        <time>2009-05-29T11:42:38Z</time>
      </trkpt>
      <trkpt lat="43.6241" lon="7.0593">
        <ele>185</ele>
        <time>2009-05-29T11:42:41Z</time>
      </trkpt>
      <trkpt lat="43.62412" lon="7.05941">
        <ele>185</ele>
        <time>2009-05-29T11:42:43Z</time>
      </trkpt>
      <trkpt lat="43.62413" lon="7.05956">
        <ele>186</ele>
        <time>2009-05-29T11:42:46Z</time>
      </trkpt>
      <trkpt lat="43.62414" lon="7.05965">
        <ele>187</ele>
        <time>2009-05-29T11:42:48Z</time>
      </trkpt>
      <trkpt lat="43.62426" lon="7.05998">
        <ele>187</ele>
        <time>2009-05-29T11:42:56Z</time>
      </trkpt>
      <trkpt lat="43.62431" lon="7.06">
        <ele>187</ele>
        <time>2009-05-29T11:42:57Z</time>
      </trkpt>
      <trkpt lat="43.62439" lon="7.06012">
        <ele>188</ele>
        <time>2009-05-29T11:43:00Z</time>
      </trkpt>
      <trkpt lat="43.62445" lon="7.06014">
        <ele>188</ele>
        <time>2009-05-29T11:43:01Z</time>
      </trkpt>
      <trkpt lat="43.62454" lon="7.06032">
        <ele>188</ele>
        <time>2009-05-29T11:43:04Z</time>
      </trkpt>
      <trkpt lat="43.62456" lon="7.06041">
        <ele>187</ele>
        <time>2009-05-29T11:43:05Z</time>
      </trkpt>
      <trkpt lat="43.62454" lon="7.06074">
        <ele>186</ele>
        <time>2009-05-29T11:43:09Z</time>
      </trkpt>
      <trkpt lat="43.62454" lon="7.06097">
        <ele>185</ele>
        <time>2009-05-29T11:43:12Z</time>
      </trkpt>
      <trkpt lat="43.62446" lon="7.06112">
        <ele>185</ele>
        <time>2009-05-29T11:43:13Z</time>
      </trkpt>
      <trkpt lat="43.62448" lon="7.0613">
        <ele>185</ele>
        <time>2009-05-29T11:43:15Z</time>
      </trkpt>
      <trkpt lat="43.62457" lon="7.06142">
        <ele>185</ele>
        <time>2009-05-29T11:43:20Z</time>
      </trkpt>
      <trkpt lat="43.62463" lon="7.06154">
        <ele>185</ele>
        <time>2009-05-29T11:43:23Z</time>
      </trkpt>
      <trkpt lat="43.62465" lon="7.06161">
        <ele>185</ele>
        <time>2009-05-29T11:43:25Z</time>
      </trkpt>
    </trkseg>
  </trk>
</gpx>